Aufgelaufene Messwerte:
Wetterdaten: Jahr 2010
Datum Temp.(2m) Temp. A. min Temp. A. max Feuchte(2m) Luftdruck Regen Wind Richtung Sonnenschein Verdunstung UV Solar Taupunkt Windchill Windben Empfang
01.01.2010 -1,5 C -1,5 C -1,5 C 92 % 1002,4 hPa 0,0 mm 6,3 km/h (2 Bft) N 0,00 h 0,102 mm -- UV-I 25 W/m -2,7 C -3,9 C 13,3 km/h (3 Bft) 99,57 %
02.01.2010 -4,9 C -4,9 C -4,9 C 93 % 1015,7 hPa 0,0 mm 0,9 km/h (0 Bft) N-NW 2,08 h 0,152 mm -- UV-I 65 W/m -5,9 C -4,9 C 2,4 km/h (1 Bft) 91,38 %
03.01.2010 -4,7 C -4,7 C -4,7 C 93 % 1020,3 hPa 0,0 mm 0,5 km/h (0 Bft) N 0,00 h 0,000 mm -- UV-I 17 W/m -5,7 C -4,7 C 2,0 km/h (1 Bft) 99,53 %
04.01.2010 -3,9 C -3,9 C -3,9 C 93 % 1011,7 hPa 0,0 mm 1,7 km/h (1 Bft) SW 0,00 h 0,000 mm -- UV-I 21 W/m -4,8 C -3,9 C 5,2 km/h (1 Bft) 98,94 %
05.01.2010 -2,7 C -2,7 C -2,6 C 92 % 1005,3 hPa 0,0 mm 7,3 km/h (2 Bft) S 0,75 h 0,102 mm -- UV-I 41 W/m -3,7 C -5,6 C 14,9 km/h (3 Bft) 98,92 %
06.01.2010 -10,3 C -10,3 C -10,3 C 89 % 1005,2 hPa 0,0 mm 1,4 km/h (1 Bft) SO 4,75 h 0,178 mm -- UV-I 96 W/m -11,8 C -10,3 C 2,8 km/h (1 Bft) 97,04 %
07.01.2010 -3,7 C -3,7 C -3,7 C 94 % 1011,8 hPa 0,2 mm 2,9 km/h (1 Bft) N-NW 0,67 h 0,102 mm -- UV-I 48 W/m -4,4 C -3,7 C 6,4 km/h (2 Bft) 99,36 %
08.01.2010 -2,7 C -2,7 C -2,7 C 93 % 1023,6 hPa 0,0 mm 2,6 km/h (1 Bft) N-NW 0,17 h 0,076 mm -- UV-I 36 W/m -3,7 C -2,7 C 8,9 km/h (2 Bft) 98,41 %
09.01.2010 0,8 C 0,8 C 0,8 C 84 % 1020,4 hPa 0,0 mm 13,0 km/h (3 Bft) O-NO 0,33 h 0,406 mm -- UV-I 50 W/m -1,6 C -3,1 C 31,4 km/h (5 Bft) 98,70 %
10.01.2010 1,3 C 1,3 C 1,3 C 90 % 1018,5 hPa 1,6 mm 11,1 km/h (2 Bft) O 0,00 h 0,457 mm -- UV-I 35 W/m -0,2 C -2,0 C 30,9 km/h (5 Bft) 99,79 %
11.01.2010 0,3 C 0,3 C 0,3 C 97 % 1018,5 hPa 5,2 mm 1,4 km/h (1 Bft) NO 0,08 h 0,076 mm -- UV-I 34 W/m -0,1 C 0,3 C 4,4 km/h (1 Bft) 98,49 %
12.01.2010 -2,8 C -2,8 C -2,8 C 96 % 1019,3 hPa 0,0 mm 0,0 km/h (0 Bft) N 0,00 h 0,000 mm -- UV-I 20 W/m -3,4 C -2,8 C 0,0 km/h (0 Bft) 98,75 %
13.01.2010 -1,9 C -1,9 C -1,9 C 90 % 1013,6 hPa 0,0 mm 6,3 km/h (2 Bft) SO 0,00 h 0,000 mm -- UV-I 19 W/m -3,3 C -4,0 C 11,3 km/h (2 Bft) 98,72 %
14.01.2010 -2,0 C -2,0 C -2,0 C 92 % 1015,3 hPa 0,0 mm 8,3 km/h (2 Bft) O-SO 0,00 h 0,102 mm -- UV-I 23 W/m -3,1 C -5,1 C 13,7 km/h (3 Bft) 99,53 %
15.01.2010 -2,8 C -2,8 C -2,7 C 91 % 1025,9 hPa 0,0 mm 4,4 km/h (1 Bft) SO 0,00 h 0,102 mm -- UV-I 32 W/m -4,0 C -3,4 C 8,8 km/h (2 Bft) 97,96 %
16.01.2010 -1,7 C -1,7 C -1,7 C 88 % 1020,7 hPa 0,0 mm 10,6 km/h (2 Bft) SO 0,00 h 0,178 mm -- UV-I 37 W/m -3,4 C -5,5 C 18,5 km/h (3 Bft) 98,35 %
17.01.2010 -2,1 C -2,1 C -2,1 C 93 % 1013,3 hPa 0,0 mm 3,3 km/h (1 Bft) O-SO 0,17 h 0,127 mm -- UV-I 33 W/m -3,1 C -3,0 C 8,4 km/h (2 Bft) 99,15 %
18.01.2010 -1,8 C -1,8 C -1,7 C 93 % 1021,9 hPa 0,2 mm 2,0 km/h (1 Bft) W-NW 0,50 h 0,127 mm -- UV-I 56 W/m -2,8 C -1,8 C 4,8 km/h (1 Bft) 99,15 %
19.01.2010 -0,1 C -0,1 C -0,1 C 97 % 1021,8 hPa 0,2 mm 1,1 km/h (0 Bft) NO 0,00 h 0,000 mm -- UV-I 18 W/m -0,6 C -0,1 C 5,6 km/h (1 Bft) 98,96 %
20.01.2010 -2,8 C -2,8 C -2,8 C 92 % 1021,1 hPa 0,0 mm 3,8 km/h (1 Bft) O-SO 0,17 h 0,076 mm -- UV-I 24 W/m -3,9 C -3,4 C 9,7 km/h (2 Bft) 99,57 %
21.01.2010 -7,0 C -7,0 C -7,0 C 89 % 1028,1 hPa 0,0 mm 2,3 km/h (1 Bft) O-SO 5,58 h 0,254 mm -- UV-I 116 W/m -8,5 C -7,0 C 6,0 km/h (2 Bft) 99,57 %
22.01.2010 -6,4 C -6,4 C -6,3 C 88 % 1030,8 hPa 0,0 mm 4,4 km/h (1 Bft) SO 0,00 h 0,152 mm -- UV-I 45 W/m -8,0 C -7,3 C 10,9 km/h (2 Bft) 98,90 %
23.01.2010 -9,7 C -9,7 C -9,7 C 86 % 1029,8 hPa 0,0 mm 5,8 km/h (1 Bft) O-SO 3,33 h 0,178 mm -- UV-I 71 W/m -11,6 C -12,1 C 11,7 km/h (2 Bft) 100,00 %
24.01.2010 -9,9 C -9,9 C -9,9 C 79 % 1030,5 hPa 0,0 mm 7,9 km/h (2 Bft) O-SO 1,42 h 0,178 mm -- UV-I 75 W/m -13,0 C -14,2 C 14,9 km/h (3 Bft) 99,15 %
25.01.2010 -9,9 C -9,9 C -9,8 C 79 % 1035,8 hPa 0,0 mm 1,7 km/h (1 Bft) O 5,17 h 0,330 mm -- UV-I 135 W/m -12,9 C -9,9 C 5,6 km/h (1 Bft) 89,96 %
26.01.2010 -12,6 C -12,6 C -12,6 C 78 % 1041,6 hPa 0,0 mm 0,6 km/h (0 Bft) O 5,83 h 0,381 mm -- UV-I 150 W/m -15,7 C -12,6 C 2,0 km/h (1 Bft) 99,57 %
27.01.2010 -3,4 C -3,6 C -3,4 C 85 % 1011,2 hPa 0,2 mm 4,7 km/h (1 Bft) SW 0,00 h 0,178 mm -- UV-I 56 W/m -5,8 C -5,2 C 11,7 km/h (2 Bft) 100,00 %
28.01.2010 1,0 C 1,0 C 1,1 C 87 % 993,7 hPa 4,4 mm 8,1 km/h (2 Bft) W-NW 2,58 h 0,381 mm -- UV-I 79 W/m -1,0 C -1,5 C 21,7 km/h (4 Bft) 99,15 %
29.01.2010 0,0 C 0,0 C 0,0 C 94 % 980,8 hPa 1,0 mm 5,5 km/h (1 Bft) SW 0,17 h 0,229 mm -- UV-I 64 W/m -0,8 C -1,4 C 13,2 km/h (3 Bft) 99,57 %
30.01.2010 -6,0 C -6,0 C -5,9 C 88 % 991,9 hPa 0,0 mm 5,0 km/h (1 Bft) N-NW 3,92 h 0,279 mm -- UV-I 92 W/m -7,7 C -7,9 C 9,3 km/h (2 Bft) 99,57 %
31.01.2010 -0,2 C -0,3 C -0,2 C 96 % 997,5 hPa 0,0 mm 2,9 km/h (1 Bft) S 0,17 h 0,152 mm -- UV-I 47 W/m -0,9 C -0,8 C 6,4 km/h (2 Bft) 98,72 %
01.02.2010 -1,0 C -1,0 C -0,9 C 92 % 1005,0 hPa 3,0 mm 6,8 km/h (2 Bft) SW 0,08 h 0,229 mm -- UV-I 60 W/m -2,2 C -3,3 C 14,1 km/h (3 Bft) 99,15 %
02.02.2010 -1,2 C -1,2 C -1,2 C 95 % 997,0 hPa 0,2 mm 7,3 km/h (2 Bft) S 0,17 h 0,152 mm -- UV-I 45 W/m -1,8 C -3,8 C 14,1 km/h (3 Bft) 98,29 %
03.02.2010 0,4 C 0,4 C 0,4 C 91 % 1003,8 hPa 10,6 mm 4,2 km/h (1 Bft) SW 3,83 h 0,559 mm -- UV-I 139 W/m -1,0 C -0,7 C 13,7 km/h (3 Bft) 98,52 %
04.02.2010 0,5 C 0,5 C 0,5 C 95 % 1013,9 hPa 3,0 mm 3,4 km/h (1 Bft) SO 0,42 h 0,229 mm -- UV-I 65 W/m -0,3 C 0,5 C 7,2 km/h (2 Bft) 99,38 %
05.02.2010 1,3 C 1,3 C 1,3 C 90 % 1012,5 hPa 8,4 mm 7,1 km/h (2 Bft) O-SO 7,00 h 0,610 mm -- UV-I 142 W/m -0,2 C -0,9 C 11,6 km/h (2 Bft) 97,71 %
06.02.2010 -2,6 C -2,6 C -2,6 C 88 % 1018,9 hPa 0,0 mm 2,9 km/h (1 Bft) O 0,25 h 0,203 mm -- UV-I 49 W/m -4,4 C -3,0 C 9,7 km/h (2 Bft) 94,83 %
07.02.2010 -5,6 C -5,7 C -5,6 C 93 % 1024,0 hPa 0,0 mm 3,1 km/h (1 Bft) O-SO 0,00 h 0,127 mm -- UV-I 46 W/m -6,6 C -6,2 C 7,6 km/h (2 Bft) 98,51 %
08.02.2010 -4,3 C -4,4 C -4,3 C 83 % 1015,0 hPa 0,0 mm 3,5 km/h (1 Bft) SO 0,92 h 0,229 mm -- UV-I 85 W/m -6,8 C -5,7 C 7,6 km/h (2 Bft) 99,35 %
09.02.2010 -3,9 C -3,9 C -3,9 C 88 % 1009,9 hPa 0,0 mm 1,4 km/h (1 Bft) O 0,58 h 0,305 mm -- UV-I 90 W/m -5,7 C -3,9 C 5,6 km/h (1 Bft) 95,11 %
10.02.2010 -3,0 C -3,0 C -3,0 C 90 % 1013,1 hPa 0,2 mm 4,5 km/h (1 Bft) O-NO 3,50 h 0,406 mm -- UV-I 109 W/m -4,4 C -3,8 C 14,1 km/h (3 Bft) 99,58 %
11.02.2010 -1,9 C -1,9 C -1,9 C 88 % 1016,7 hPa 0,0 mm 7,6 km/h (2 Bft) N 0,58 h 0,279 mm -- UV-I 76 W/m -3,6 C -4,8 C 19,3 km/h (3 Bft) 98,72 %
12.02.2010 -3,0 C -3,0 C -2,9 C 89 % 1018,4 hPa 0,0 mm 7,2 km/h (2 Bft) N 1,17 h 0,356 mm -- UV-I 96 W/m -4,6 C -4,9 C 14,5 km/h (3 Bft) 100,00 %
13.02.2010 -2,5 C -2,5 C -2,5 C 89 % 1015,3 hPa 0,2 mm 3,8 km/h (1 Bft) N 2,92 h 0,356 mm -- UV-I 105 W/m -4,1 C -3,6 C 8,1 km/h (2 Bft) 99,56 %
14.02.2010 -2,7 C -2,8 C -2,7 C 90 % 1014,4 hPa 0,0 mm 0,2 km/h (0 Bft) S 0,33 h 0,152 mm -- UV-I 54 W/m -4,2 C -2,7 C 1,6 km/h (1 Bft) 99,56 %
15.02.2010 -3,4 C -3,5 C -3,4 C 84 % 1009,4 hPa 0,0 mm 4,4 km/h (1 Bft) S 4,42 h 0,432 mm -- UV-I 135 W/m -5,7 C -5,2 C 8,0 km/h (2 Bft) 100,00 %
16.02.2010 -4,5 C -4,5 C -4,4 C 83 % 1004,8 hPa 0,2 mm 3,3 km/h (1 Bft) SO 7,08 h 0,686 mm -- UV-I 183 W/m -6,9 C -5,0 C 6,0 km/h (2 Bft) 99,36 %
17.02.2010 -2,8 C -2,8 C -2,8 C 87 % 999,0 hPa 0,0 mm 4,1 km/h (1 Bft) O-SO 4,00 h 0,559 mm -- UV-I 145 W/m -4,7 C -3,5 C 7,2 km/h (2 Bft) 98,94 %
18.02.2010 0,3 C 0,3 C 0,3 C 93 % 995,9 hPa 5,4 mm 3,0 km/h (1 Bft) S 0,00 h 0,203 mm -- UV-I 54 W/m -0,6 C -0,3 C 8,0 km/h (2 Bft) 99,79 %
19.02.2010 2,8 C 2,8 C 2,8 C 90 % 990,5 hPa 13,6 mm 3,2 km/h (1 Bft) S-SO 3,83 h 0,660 mm -- UV-I 139 W/m 1,2 C 2,0 C 6,9 km/h (2 Bft) 99,36 %
20.02.2010 1,3 C 1,3 C 1,3 C 83 % 992,9 hPa 2,6 mm 6,2 km/h (2 Bft) SW 1,67 h 0,508 mm -- UV-I 83 W/m -1,3 C -0,4 C 12,9 km/h (3 Bft) 100,00 %
21.02.2010 -2,2 C -2,2 C -2,1 C 85 % 999,4 hPa 0,6 mm 3,4 km/h (1 Bft) W-SW 4,00 h 0,610 mm -- UV-I 153 W/m -4,3 C -2,2 C 7,6 km/h (2 Bft) 98,43 %
22.02.2010 1,8 C 1,8 C 1,8 C 92 % 988,9 hPa 12,2 mm 3,2 km/h (1 Bft) S-SO 4,92 h 0,533 mm -- UV-I 135 W/m 0,6 C 1,3 C 6,4 km/h (2 Bft) 100,00 %
23.02.2010 -0,4 C -0,4 C -0,4 C 88 % 998,5 hPa 1,6 mm 3,6 km/h (1 Bft) N-NW 0,08 h 0,330 mm -- UV-I 83 W/m -2,3 C -1,0 C 9,3 km/h (2 Bft) 97,94 %
24.02.2010 -0,1 C -0,2 C -0,1 C 93 % 1001,5 hPa 0,8 mm 7,0 km/h (2 Bft) SO 0,25 h 0,330 mm -- UV-I 85 W/m -1,1 C -2,5 C 11,3 km/h (2 Bft) 98,30 %
25.02.2010 3,8 C 3,8 C 3,8 C 95 % 994,8 hPa 4,0 mm 4,3 km/h (1 Bft) S-SO 1,50 h 0,483 mm -- UV-I 106 W/m 3,2 C 2,8 C 8,9 km/h (2 Bft) 98,96 %
26.02.2010 4,6 C 4,5 C 4,6 C 92 % 990,9 hPa 1,4 mm 6,3 km/h (2 Bft) SO 3,00 h 0,508 mm -- UV-I 118 W/m 3,4 C 3,1 C 13,7 km/h (3 Bft) 97,79 %
27.02.2010 4,7 C 4,7 C 4,8 C 88 % 997,3 hPa 0,8 mm 5,2 km/h (1 Bft) S 2,42 h 0,660 mm -- UV-I 132 W/m 2,8 C 3,9 C 13,3 km/h (3 Bft) 99,15 %
28.02.2010 3,9 C 3,9 C 4,0 C 91 % 982,9 hPa 3,2 mm 7,2 km/h (2 Bft) SO 0,42 h 0,457 mm -- UV-I 75 W/m 2,6 C 2,4 C 17,3 km/h (3 Bft) 98,58 %
01.03.2010 2,4 C 2,3 C 2,4 C 89 % 1002,4 hPa 4,8 mm 7,2 km/h (2 Bft) W 2,75 h 0,610 mm -- UV-I 109 W/m 0,6 C 1,0 C 18,5 km/h (3 Bft) 99,15 %
02.03.2010 2,7 C 2,7 C 2,8 C 88 % 1016,2 hPa 2,8 mm 4,9 km/h (1 Bft) W-SW 5,00 h 0,813 mm -- UV-I 170 W/m 0,8 C 2,0 C 14,5 km/h (3 Bft) 99,79 %
03.03.2010 1,4 C 1,3 C 1,4 C 82 % 1018,7 hPa 1,4 mm 4,4 km/h (1 Bft) W-NW 6,08 h 1,092 mm -- UV-I 222 W/m -1,7 C 0,7 C 10,4 km/h (2 Bft) 97,68 %
04.03.2010 -0,7 C -0,8 C -0,7 C 75 % 1019,1 hPa 0,0 mm 7,3 km/h (2 Bft) N-NW 4,58 h 1,016 mm -- UV-I 188 W/m -4,9 C -3,3 C 14,5 km/h (3 Bft) 98,94 %
05.03.2010 -1,2 C -1,3 C -1,1 C 79 % 1017,1 hPa 0,0 mm 6,6 km/h (2 Bft) NW 7,33 h 1,168 mm -- UV-I 252 W/m -4,7 C -3,3 C 13,7 km/h (3 Bft) 98,09 %
06.03.2010 -2,5 C -2,5 C -2,4 C 80 % 1027,8 hPa 0,8 mm 5,0 km/h (1 Bft) O-NO 5,92 h 1,245 mm -- UV-I 231 W/m -5,6 C -4,2 C 10,9 km/h (2 Bft) 98,09 %
07.03.2010 -1,8 C -1,8 C -1,8 C 85 % 1031,3 hPa 0,0 mm 2,3 km/h (1 Bft) W-NW 4,83 h 0,787 mm -- UV-I 193 W/m -4,2 C -2,4 C 7,6 km/h (2 Bft) 99,58 %
08.03.2010 -1,3 C -1,4 C -1,3 C 83 % 1028,1 hPa 0,2 mm 0,6 km/h (0 Bft) O 4,92 h 0,864 mm -- UV-I 193 W/m -4,0 C -1,3 C 2,0 km/h (1 Bft) 99,44 %
09.03.2010 -2,0 C -2,1 C -2,0 C 83 % 1029,9 hPa 0,0 mm 2,3 km/h (1 Bft) N-NW 7,50 h 1,118 mm -- UV-I 260 W/m -4,7 C -2,3 C 6,0 km/h (2 Bft) 98,10 %
10.03.2010 -1,6 C -1,6 C -1,6 C 92 % 1027,9 hPa 0,0 mm 2,5 km/h (1 Bft) NO 0,00 h 0,305 mm -- UV-I 70 W/m -2,7 C -1,6 C 7,3 km/h (2 Bft) 94,49 %
11.03.2010 0,9 C 0,8 C 0,9 C 94 % 1016,6 hPa 0,2 mm 2,3 km/h (1 Bft) W 0,00 h 0,356 mm -- UV-I 78 W/m 0,0 C 0,9 C 7,2 km/h (2 Bft) 98,74 %
12.03.2010 3,7 C 3,7 C 3,8 C 91 % 1012,5 hPa 0,0 mm 10,4 km/h (2 Bft) W-NW 0,00 h 0,279 mm -- UV-I 54 W/m 2,4 C 1,1 C 22,5 km/h (4 Bft) 98,55 %
13.03.2010 4,6 C 4,6 C 4,6 C 87 % 1014,0 hPa 1,0 mm 10,8 km/h (2 Bft) W-NW 3,00 h 0,965 mm -- UV-I 149 W/m 2,6 C 2,2 C 22,1 km/h (4 Bft) 99,79 %
14.03.2010 2,4 C 2,4 C 2,4 C 89 % 1012,7 hPa 5,2 mm 9,1 km/h (2 Bft) W-NW 1,17 h 0,660 mm -- UV-I 83 W/m 0,7 C -0,2 C 24,1 km/h (4 Bft) 99,79 %
15.03.2010 1,7 C 1,7 C 1,7 C 92 % 1014,9 hPa 0,6 mm 5,2 km/h (1 Bft) NW 2,75 h 0,686 mm -- UV-I 127 W/m 0,5 C 0,3 C 12,5 km/h (3 Bft) 99,15 %
16.03.2010 1,7 C 1,7 C 1,7 C 83 % 1022,0 hPa 0,2 mm 3,7 km/h (1 Bft) NW 4,50 h 1,016 mm -- UV-I 169 W/m -1,0 C 0,7 C 10,5 km/h (2 Bft) 99,36 %
17.03.2010 6,9 C 6,9 C 6,9 C 82 % 1019,8 hPa 0,2 mm 2,6 km/h (1 Bft) W 5,17 h 1,016 mm -- UV-I 168 W/m 3,9 C 6,9 C 7,2 km/h (2 Bft) 99,79 %
18.03.2010 10,0 C 9,8 C 10,1 C 73 % 1017,9 hPa 0,0 mm 4,5 km/h (1 Bft) SW 9,25 h 1,803 mm -- UV-I 263 W/m 5,3 C 9,9 C 8,9 km/h (2 Bft) 99,15 %
19.03.2010 10,1 C 9,9 C 10,1 C 82 % 1012,3 hPa 0,0 mm 1,8 km/h (1 Bft) SW 1,42 h 0,762 mm -- UV-I 86 W/m 7,0 C 10,1 C 4,4 km/h (1 Bft) 99,58 %
20.03.2010 11,7 C 11,6 C 11,7 C 96 % 1004,8 hPa 13,8 mm 3,0 km/h (1 Bft) S 0,17 h 0,330 mm -- UV-I 57 W/m 11,0 C 11,7 C 8,8 km/h (2 Bft) 98,51 %
21.03.2010 8,5 C 8,5 C 8,6 C 84 % 1012,3 hPa 2,8 mm 7,6 km/h (2 Bft) W-NW 6,08 h 1,626 mm -- UV-I 234 W/m 5,8 C 7,8 C 20,5 km/h (4 Bft) 99,57 %
22.03.2010 7,8 C 7,7 C 7,8 C 76 % 1019,9 hPa 0,0 mm 2,2 km/h (1 Bft) S 9,08 h 1,880 mm -- UV-I 295 W/m 3,3 C 7,8 C 6,0 km/h (2 Bft) 98,98 %
23.03.2010 6,3 C 6,3 C 6,4 C 84 % 1017,9 hPa 0,6 mm 3,5 km/h (1 Bft) W-SW 8,25 h 1,930 mm -- UV-I 284 W/m 3,6 C 6,3 C 11,3 km/h (2 Bft) 98,95 %
24.03.2010 7,7 C 7,6 C 7,8 C 80 % 1014,2 hPa 0,0 mm 3,5 km/h (1 Bft) SO 11,17 h 1,981 mm -- UV-I 262 W/m 4,1 C 7,7 C 7,6 km/h (2 Bft) 99,60 %
25.03.2010 13,4 C 13,3 C 13,5 C 68 % 1007,3 hPa 0,0 mm 4,7 km/h (1 Bft) SO 8,75 h 2,565 mm -- UV-I 301 W/m 7,2 C 13,4 C 9,6 km/h (2 Bft) 98,76 %
26.03.2010 10,8 C 10,8 C 11,0 C 79 % 1003,6 hPa 10,0 mm 5,9 km/h (2 Bft) NW 8,50 h 2,083 mm -- UV-I 245 W/m 7,1 C 10,0 C 12,9 km/h (3 Bft) 100,00 %
27.03.2010 8,1 C 8,1 C 8,1 C 92 % 1001,8 hPa 2,8 mm 5,3 km/h (1 Bft) W-SW 3,67 h 0,965 mm -- UV-I 144 W/m 6,8 C 7,7 C 13,3 km/h (3 Bft) 98,30 %
28.03.2010 5,9 C 5,8 C 5,9 C 86 % 1004,1 hPa 2,6 mm 2,2 km/h (1 Bft) W-SW 3,67 h 1,092 mm -- UV-I 155 W/m 3,4 C 5,9 C 6,8 km/h (2 Bft) 98,88 %
29.03.2010 6,2 C 6,1 C 6,2 C 85 % 1004,3 hPa 0,2 mm 2,3 km/h (1 Bft) S 8,33 h 1,473 mm -- UV-I 220 W/m 3,7 C 6,2 C 6,4 km/h (2 Bft) 98,47 %
30.03.2010 9,5 C 9,3 C 9,5 C 89 % 995,4 hPa 0,0 mm 5,9 km/h (2 Bft) SO 6,92 h 1,676 mm -- UV-I 224 W/m 7,7 C 9,2 C 12,1 km/h (2 Bft) 99,58 %
31.03.2010 8,6 C 8,5 C 8,6 C 75 % 998,5 hPa 10,4 mm 5,5 km/h (1 Bft) S 10,08 h 2,159 mm -- UV-I 287 W/m 4,2 C 8,1 C 10,5 km/h (2 Bft) 99,32 %
01.04.2010 5,3 C 5,2 C 5,3 C 81 % 1007,3 hPa 1,0 mm 8,6 km/h (2 Bft) S 5,00 h 1,295 mm -- UV-I 191 W/m 2,1 C 3,4 C 16,5 km/h (3 Bft) 98,73 %
02.04.2010 7,1 C 6,9 C 7,1 C 63 % 1014,2 hPa 0,2 mm 5,9 km/h (2 Bft) S 10,33 h 2,921 mm -- UV-I 370 W/m -0,1 C 6,4 C 13,3 km/h (3 Bft) 99,15 %
03.04.2010 8,0 C 7,8 C 8,0 C 69 % 1010,8 hPa 0,0 mm 5,7 km/h (1 Bft) SO 9,25 h 2,311 mm -- UV-I 257 W/m 2,5 C 7,8 C 11,7 km/h (2 Bft) 99,79 %
04.04.2010 8,7 C 8,6 C 8,7 C 85 % 1009,0 hPa 2,6 mm 3,6 km/h (1 Bft) S 4,83 h 1,905 mm -- UV-I 254 W/m 6,2 C 8,7 C 8,0 km/h (2 Bft) 99,36 %
05.04.2010 5,3 C 5,3 C 5,4 C 90 % 1023,5 hPa 0,0 mm 3,6 km/h (1 Bft) W 1,75 h 0,813 mm -- UV-I 118 W/m 3,8 C 4,7 C 10,0 km/h (2 Bft) 99,36 %
06.04.2010 8,6 C 8,6 C 8,7 C 78 % 1024,4 hPa 0,6 mm 3,8 km/h (1 Bft) S 4,83 h 1,600 mm -- UV-I 206 W/m 4,8 C 8,6 C 7,6 km/h (2 Bft) 99,15 %
07.04.2010 9,9 C 9,9 C 10,0 C 66 % 1020,8 hPa 0,0 mm 5,4 km/h (1 Bft) SO 10,67 h 3,404 mm -- UV-I 357 W/m 3,5 C 9,7 C 10,0 km/h (2 Bft) 98,32 %
08.04.2010 9,1 C 9,1 C 9,2 C 75 % 1023,9 hPa 0,0 mm 6,6 km/h (2 Bft) W-NW 6,33 h 1,626 mm -- UV-I 193 W/m 4,8 C 8,4 C 16,1 km/h (3 Bft) 98,74 %
09.04.2010 9,1 C 9,1 C 9,2 C 71 % 1028,4 hPa 0,0 mm 6,4 km/h (2 Bft) W-NW 6,25 h 2,134 mm -- UV-I 231 W/m 3,9 C 8,9 C 13,7 km/h (3 Bft) 100,00 %
10.04.2010 8,3 C 8,3 C 8,4 C 72 % 1028,2 hPa 0,0 mm 7,6 km/h (2 Bft) NW 9,67 h 3,048 mm -- UV-I 360 W/m 3,4 C 7,4 C 14,9 km/h (3 Bft) 99,15 %
11.04.2010 5,2 C 5,2 C 5,2 C 90 % 1028,3 hPa 0,4 mm 3,2 km/h (1 Bft) N 1,75 h 0,660 mm -- UV-I 120 W/m 3,6 C 4,9 C 10,9 km/h (2 Bft) 97,63 %
12.04.2010 3,7 C 3,7 C 3,8 C 93 % 1025,0 hPa 0,0 mm 5,9 km/h (2 Bft) N-NO 0,08 h 0,584 mm -- UV-I 99 W/m 2,7 C 2,6 C 18,1 km/h (3 Bft) 98,51 %
13.04.2010 6,6 C 6,5 C 6,6 C 80 % 1019,9 hPa 0,0 mm 2,2 km/h (1 Bft) O-NO 10,08 h 2,235 mm -- UV-I 325 W/m 2,9 C 6,6 C 7,6 km/h (2 Bft) 98,95 %
14.04.2010 5,6 C 5,6 C 5,7 C 83 % 1020,6 hPa 0,0 mm 3,9 km/h (1 Bft) N-NO 11,33 h 2,489 mm -- UV-I 363 W/m 2,8 C 5,3 C 11,3 km/h (2 Bft) 99,57 %
15.04.2010 9,4 C 9,3 C 9,5 C 63 % 1019,0 hPa 0,0 mm 6,1 km/h (2 Bft) N 11,17 h 2,997 mm -- UV-I 386 W/m 2,1 C 9,4 C 11,3 km/h (2 Bft) 97,80 %
16.04.2010 8,8 C 8,8 C 8,9 C 65 % 1020,0 hPa 0,0 mm 9,8 km/h (2 Bft) NW 11,92 h 3,226 mm -- UV-I 355 W/m 2,1 C 7,9 C 20,1 km/h (4 Bft) 99,79 %
17.04.2010 9,2 C 9,1 C 9,3 C 70 % 1018,5 hPa 0,0 mm 5,4 km/h (1 Bft) W-SW 12,83 h 3,251 mm -- UV-I 389 W/m 3,7 C 9,2 C 16,1 km/h (3 Bft) 100,00 %
18.04.2010 10,2 C 10,1 C 10,4 C 70 % 1013,2 hPa 0,0 mm 2,2 km/h (1 Bft) S 11,83 h 3,581 mm -- UV-I 392 W/m 3,9 C 10,2 C 6,0 km/h (2 Bft) 98,73 %
19.04.2010 6,2 C 6,1 C 6,2 C 65 % 1016,7 hPa 0,0 mm 2,4 km/h (1 Bft) N-NW 10,42 h 2,667 mm -- UV-I 341 W/m -0,5 C 6,1 C 4,8 km/h (1 Bft) 98,29 %
20.04.2010 5,4 C 5,3 C 5,4 C 82 % 1011,0 hPa 3,4 mm 3,4 km/h (1 Bft) W 4,17 h 0,940 mm -- UV-I 130 W/m 2,5 C 5,2 C 10,1 km/h (2 Bft) 99,15 %
21.04.2010 5,1 C 5,1 C 5,1 C 79 % 1011,9 hPa 2,2 mm 6,6 km/h (2 Bft) W 7,00 h 1,905 mm -- UV-I 255 W/m 1,6 C 4,1 C 19,7 km/h (3 Bft) 98,93 %
22.04.2010 6,9 C 6,7 C 6,9 C 70 % 1015,3 hPa 0,0 mm 5,4 km/h (1 Bft) W-NW 11,33 h 2,896 mm -- UV-I 340 W/m 1,4 C 6,3 C 12,9 km/h (3 Bft) 99,16 %
23.04.2010 7,8 C 7,6 C 7,9 C 67 % 1016,8 hPa 0,0 mm 1,2 km/h (1 Bft) NW 11,33 h 2,845 mm -- UV-I 353 W/m 1,4 C 7,8 C 4,4 km/h (1 Bft) 99,37 %
24.04.2010 7,7 C 7,6 C 7,8 C 76 % 1023,7 hPa 0,0 mm 0,5 km/h (0 Bft) N 9,17 h 2,235 mm -- UV-I 290 W/m 3,5 C 7,7 C 3,6 km/h (1 Bft) 99,79 %
25.04.2010 12,9 C 12,8 C 13,1 C 62 % 1023,5 hPa 0,0 mm 2,4 km/h (1 Bft) O-SO 12,67 h 3,962 mm -- UV-I 405 W/m 4,9 C 12,9 C 6,4 km/h (2 Bft) 99,79 %
26.04.2010 11,7 C 11,7 C 11,7 C 83 % 1019,8 hPa 2,6 mm 5,0 km/h (1 Bft) SO 4,83 h 1,448 mm -- UV-I 171 W/m 8,8 C 11,7 C 13,7 km/h (3 Bft) 100,00 %
27.04.2010 11,3 C 11,3 C 11,4 C 72 % 1024,7 hPa 0,0 mm 2,7 km/h (1 Bft) W-NW 8,00 h 2,515 mm -- UV-I 245 W/m 6,3 C 11,3 C 9,3 km/h (2 Bft) 99,79 %
28.04.2010 13,4 C 13,3 C 13,4 C 75 % 1022,3 hPa 0,0 mm 0,6 km/h (0 Bft) W 11,08 h 3,073 mm -- UV-I 381 W/m 8,5 C 13,4 C 3,6 km/h (1 Bft) 99,79 %
29.04.2010 17,5 C 17,4 C 17,6 C 63 % 1009,8 hPa 0,0 mm 1,1 km/h (0 Bft) SW 12,58 h 3,810 mm -- UV-I 367 W/m 9,8 C 17,5 C 3,6 km/h (1 Bft) 100,00 %
30.04.2010 12,5 C 12,4 C 12,5 C 87 % 1005,5 hPa 4,2 mm 2,6 km/h (1 Bft) W 2,08 h 0,889 mm -- UV-I 99 W/m 10,4 C 12,5 C 11,3 km/h (2 Bft) 98,08 %
01.05.2010 10,6 C 10,5 C 10,7 C 87 % 1008,1 hPa 4,6 mm 2,4 km/h (1 Bft) W 7,00 h 1,956 mm -- UV-I 221 W/m 8,4 C 10,6 C 10,0 km/h (2 Bft) 99,36 %
02.05.2010 8,2 C 8,1 C 8,3 C 72 % 1011,9 hPa 0,0 mm 1,5 km/h (1 Bft) NW 13,25 h 3,226 mm -- UV-I 406 W/m 2,9 C 8,2 C 6,8 km/h (2 Bft) 98,50 %
03.05.2010 6,6 C 6,6 C 6,6 C 91 % 1013,8 hPa 4,0 mm 1,0 km/h (0 Bft) NO 0,00 h 0,660 mm -- UV-I 95 W/m 5,2 C 6,6 C 5,6 km/h (1 Bft) 98,44 %
04.05.2010 7,1 C 7,0 C 7,2 C 65 % 1018,5 hPa 0,0 mm 4,7 km/h (1 Bft) W-NW 7,50 h 2,515 mm -- UV-I 265 W/m 0,6 C 7,1 C 10,9 km/h (2 Bft) 97,90 %
05.05.2010 6,8 C 6,7 C 6,8 C 75 % 1018,4 hPa 0,0 mm 3,1 km/h (1 Bft) NW 10,33 h 2,692 mm -- UV-I 340 W/m 2,4 C 6,8 C 10,5 km/h (2 Bft) 97,46 %
06.05.2010 6,7 C 6,6 C 6,8 C 86 % 1009,6 hPa 4,6 mm 6,9 km/h (2 Bft) O-NO 5,08 h 1,702 mm -- UV-I 211 W/m 4,5 C 5,6 C 20,5 km/h (4 Bft) 97,89 %
07.05.2010 6,5 C 6,5 C 6,5 C 96 % 1007,7 hPa 6,8 mm 3,3 km/h (1 Bft) O-NO 0,00 h 0,356 mm -- UV-I 56 W/m 5,9 C 5,9 C 8,4 km/h (2 Bft) 98,73 %
08.05.2010 7,6 C 7,6 C 7,6 C 92 % 1010,2 hPa 0,4 mm 1,2 km/h (1 Bft) NO 0,00 h 0,610 mm -- UV-I 85 W/m 6,4 C 7,6 C 3,6 km/h (1 Bft) 98,73 %
09.05.2010 8,4 C 8,4 C 8,4 C 90 % 1008,8 hPa 0,4 mm 0,9 km/h (0 Bft) NW 0,67 h 0,737 mm -- UV-I 102 W/m 6,8 C 8,4 C 1,6 km/h (1 Bft) 98,44 %
10.05.2010 6,7 C 6,6 C 6,8 C 75 % 1009,7 hPa 0,0 mm 1,5 km/h (1 Bft) W-NW 5,08 h 1,651 mm -- UV-I 206 W/m 2,2 C 6,6 C 4,8 km/h (1 Bft) 99,57 %
11.05.2010 7,6 C 7,6 C 7,6 C 78 % 1011,4 hPa 0,0 mm 2,5 km/h (1 Bft) O-NO 0,92 h 1,168 mm -- UV-I 141 W/m 3,9 C 7,6 C 9,3 km/h (2 Bft) 100,00 %
12.05.2010 8,4 C 8,4 C 8,4 C 94 % 1006,3 hPa 17,8 mm 1,5 km/h (1 Bft) N 0,00 h 0,610 mm -- UV-I 83 W/m 7,5 C 8,2 C 4,8 km/h (1 Bft) 98,93 %
13.05.2010 8,9 C 8,9 C 8,9 C 88 % 1010,7 hPa 0,4 mm 4,0 km/h (1 Bft) NW 0,33 h 0,991 mm -- UV-I 127 W/m 7,0 C 8,9 C 9,6 km/h (2 Bft) 99,15 %
14.05.2010 9,8 C 9,7 C 9,8 C 80 % 1010,6 hPa 0,0 mm 3,0 km/h (1 Bft) N-NW 0,75 h 1,245 mm -- UV-I 134 W/m 6,3 C 9,8 C 8,1 km/h (2 Bft) 98,94 %
15.05.2010 8,2 C 8,1 C 8,2 C 84 % 1005,7 hPa 10,8 mm 7,3 km/h (2 Bft) NW 2,25 h 1,829 mm -- UV-I 179 W/m 5,5 C 7,3 C 18,5 km/h (3 Bft) 99,31 %
16.05.2010 10,7 C 10,6 C 10,7 C 74 % 1010,2 hPa 9,0 mm 7,5 km/h (2 Bft) W 7,67 h 2,845 mm -- UV-I 295 W/m 6,0 C 10,4 C 18,5 km/h (3 Bft) 99,79 %
17.05.2010 11,3 C 11,2 C 11,4 C 74 % 1018,4 hPa 0,0 mm 7,4 km/h (2 Bft) NW 10,67 h 3,531 mm -- UV-I 351 W/m 6,4 C 11,3 C 16,1 km/h (3 Bft) 100,00 %
18.05.2010 10,2 C 10,2 C 10,3 C 81 % 1021,5 hPa 0,0 mm 7,4 km/h (2 Bft) W-NW 3,42 h 1,499 mm -- UV-I 153 W/m 7,1 C 10,0 C 17,3 km/h (3 Bft) 99,13 %
19.05.2010 15,6 C 15,5 C 15,6 C 82 % 1021,0 hPa 0,0 mm 8,2 km/h (2 Bft) NW 5,92 h 2,286 mm -- UV-I 219 W/m 12,4 C 15,3 C 16,1 km/h (3 Bft) 99,79 %
20.05.2010 14,6 C 14,6 C 14,6 C 88 % 1025,8 hPa 14,0 mm 1,9 km/h (1 Bft) NW 1,67 h 1,346 mm -- UV-I 158 W/m 12,5 C 14,6 C 4,8 km/h (1 Bft) 98,93 %
21.05.2010 14,1 C 14,0 C 14,2 C 78 % 1025,7 hPa 0,0 mm 2,7 km/h (1 Bft) W-NW 14,00 h 4,191 mm -- UV-I 433 W/m 10,0 C 14,1 C 10,9 km/h (2 Bft) 97,01 %
22.05.2010 13,9 C 13,9 C 13,9 C 93 % 1023,3 hPa 0,4 mm 1,8 km/h (1 Bft) NW 5,58 h 1,651 mm -- UV-I 181 W/m 12,8 C 13,9 C 4,4 km/h (1 Bft) 98,91 %
23.05.2010 15,7 C 15,7 C 15,8 C 81 % 1017,3 hPa 0,2 mm 3,4 km/h (1 Bft) W-NW 11,92 h 4,191 mm -- UV-I 397 W/m 12,2 C 15,7 C 11,7 km/h (2 Bft) 99,38 %
24.05.2010 12,3 C 12,3 C 12,4 C 87 % 1008,3 hPa 3,8 mm 4,2 km/h (1 Bft) W-NW 3,08 h 1,600 mm -- UV-I 159 W/m 10,2 C 12,3 C 14,1 km/h (3 Bft) 98,51 %
25.05.2010 9,9 C 9,8 C 10,0 C 68 % 1009,8 hPa 0,2 mm 8,0 km/h (2 Bft) W-NW 9,50 h 3,353 mm -- UV-I 312 W/m 4,2 C 9,4 C 18,1 km/h (3 Bft) 100,00 %
26.05.2010 9,7 C 9,6 C 9,7 C 76 % 1009,7 hPa 0,0 mm 0,9 km/h (0 Bft) NW 8,17 h 2,565 mm -- UV-I 297 W/m 5,5 C 9,7 C 4,8 km/h (1 Bft) 99,10 %
27.05.2010 12,0 C 12,0 C 12,1 C 76 % 1009,3 hPa 0,0 mm 0,4 km/h (0 Bft) NO 6,33 h 2,159 mm -- UV-I 239 W/m 7,8 C 12,0 C 2,4 km/h (1 Bft) 98,52 %
28.05.2010 12,0 C 11,8 C 12,0 C 71 % 1012,3 hPa 7,2 mm 4,0 km/h (1 Bft) W-NW 8,08 h 2,616 mm -- UV-I 262 W/m 6,6 C 12,0 C 12,8 km/h (3 Bft) 99,15 %
29.05.2010 12,4 C 12,1 C 12,4 C 69 % 1016,6 hPa 0,0 mm 0,5 km/h (0 Bft) S-SO 12,08 h 3,658 mm -- UV-I 396 W/m 6,3 C 12,4 C 4,0 km/h (1 Bft) 99,37 %
30.05.2010 12,9 C 12,9 C 12,9 C 94 % 1002,7 hPa 17,0 mm 1,2 km/h (1 Bft) S 1,67 h 1,372 mm -- UV-I 157 W/m 11,9 C 12,9 C 3,6 km/h (1 Bft) 98,73 %
31.05.2010 12,3 C 12,3 C 12,3 C 91 % 1010,3 hPa 4,6 mm 3,5 km/h (1 Bft) N-NW 0,58 h 0,838 mm -- UV-I 99 W/m 10,8 C 12,2 C 11,3 km/h (2 Bft) 99,35 %
01.06.2010 12,6 C 12,4 C 12,7 C 84 % 1013,6 hPa 0,0 mm 3,9 km/h (1 Bft) N-NW 4,08 h 2,235 mm -- UV-I 234 W/m 9,9 C 12,6 C 11,7 km/h (2 Bft) 98,68 %
02.06.2010 15,9 C 15,7 C 15,9 C 67 % 1017,4 hPa 0,6 mm 3,8 km/h (1 Bft) N-NW 12,67 h 4,775 mm -- UV-I 439 W/m 9,4 C 15,9 C 10,4 km/h (2 Bft) 96,86 %
03.06.2010 16,3 C 16,2 C 16,3 C 64 % 1019,7 hPa 0,0 mm 6,1 km/h (2 Bft) N-NW 14,00 h 5,131 mm -- UV-I 446 W/m 9,1 C 16,3 C 12,9 km/h (3 Bft) 99,37 %
04.06.2010 15,5 C 15,4 C 15,6 C 76 % 1019,8 hPa 0,0 mm 2,0 km/h (1 Bft) NW 11,50 h 3,988 mm -- UV-I 399 W/m 11,0 C 15,5 C 4,8 km/h (1 Bft) 100,00 %
05.06.2010 15,4 C 15,4 C 15,6 C 80 % 1018,8 hPa 0,0 mm 0,6 km/h (0 Bft) W-NW 9,17 h 3,327 mm -- UV-I 342 W/m 11,8 C 15,4 C 2,8 km/h (1 Bft) 98,94 %
06.06.2010 17,6 C 17,5 C 17,6 C 72 % 1010,8 hPa 3,0 mm 1,2 km/h (1 Bft) O-SO 11,83 h 4,216 mm -- UV-I 420 W/m 11,9 C 17,6 C 5,3 km/h (1 Bft) 97,90 %
07.06.2010 13,6 C 13,6 C 13,7 C 95 % 1006,8 hPa 54,4 mm 1,2 km/h (1 Bft) W 0,92 h 0,737 mm -- UV-I 86 W/m 12,9 C 13,6 C 8,8 km/h (2 Bft) 98,75 %
08.06.2010 16,6 C 16,6 C 16,7 C 89 % 1007,5 hPa 1,4 mm 0,3 km/h (0 Bft) S 6,92 h 2,845 mm -- UV-I 292 W/m 14,6 C 16,6 C 2,4 km/h (1 Bft) 99,58 %
09.06.2010 18,4 C 18,3 C 18,5 C 92 % 1007,1 hPa 7,8 mm 0,7 km/h (0 Bft) S-SO 5,67 h 2,413 mm -- UV-I 233 W/m 16,9 C 18,4 C 5,6 km/h (1 Bft) 99,15 %
10.06.2010 15,0 C 15,0 C 15,0 C 96 % 1007,3 hPa 1,0 mm 2,4 km/h (1 Bft) N 2,33 h 1,219 mm -- UV-I 138 W/m 14,3 C 15,0 C 5,6 km/h (1 Bft) 99,76 %
11.06.2010 17,2 C 17,1 C 17,2 C 91 % 1002,7 hPa 2,2 mm 5,7 km/h (1 Bft) S 5,25 h 2,515 mm -- UV-I 241 W/m 15,5 C 17,2 C 14,5 km/h (3 Bft) 98,51 %
12.06.2010 13,5 C 13,4 C 13,6 C 78 % 1008,2 hPa 0,2 mm 6,5 km/h (2 Bft) W-NW 7,67 h 2,692 mm -- UV-I 254 W/m 9,6 C 13,5 C 19,3 km/h (3 Bft) 99,79 %
13.06.2010 13,2 C 13,2 C 13,3 C 74 % 1014,2 hPa 0,0 mm 3,0 km/h (1 Bft) NW 4,08 h 2,388 mm -- UV-I 223 W/m 8,4 C 13,2 C 8,8 km/h (2 Bft) 98,96 %
14.06.2010 14,1 C 14,1 C 14,2 C 76 % 1016,9 hPa 0,0 mm 2,7 km/h (1 Bft) NW 5,50 h 2,438 mm -- UV-I 244 W/m 9,8 C 14,1 C 7,6 km/h (2 Bft) 99,58 %
15.06.2010 13,2 C 13,0 C 13,3 C 76 % 1022,0 hPa 0,0 mm 1,9 km/h (1 Bft) NW 10,50 h 3,505 mm -- UV-I 332 W/m 8,9 C 13,2 C 4,8 km/h (1 Bft) 99,59 %
16.06.2010 14,6 C 14,4 C 14,7 C 72 % 1023,8 hPa 0,0 mm 1,5 km/h (1 Bft) NO 14,00 h 4,724 mm -- UV-I 457 W/m 9,1 C 14,6 C 4,0 km/h (1 Bft) 98,65 %
17.06.2010 15,6 C 15,5 C 15,7 C 74 % 1019,4 hPa 0,0 mm 0,6 km/h (0 Bft) N 13,92 h 4,572 mm -- UV-I 440 W/m 10,6 C 15,6 C 1,6 km/h (1 Bft) 99,14 %
18.06.2010 13,0 C 12,9 C 13,1 C 73 % 1008,8 hPa 0,0 mm 9,1 km/h (2 Bft) NW 4,92 h 2,464 mm -- UV-I 216 W/m 8,2 C 13,0 C 24,1 km/h (4 Bft) 99,38 %
19.06.2010 11,2 C 11,1 C 11,3 C 84 % 1002,3 hPa 0,4 mm 2,4 km/h (1 Bft) W 2,83 h 1,651 mm -- UV-I 177 W/m 8,7 C 11,2 C 12,5 km/h (3 Bft) 99,54 %
20.06.2010 12,6 C 12,5 C 12,6 C 91 % 1011,0 hPa 1,8 mm 1,9 km/h (1 Bft) W-NW 5,92 h 2,007 mm -- UV-I 231 W/m 11,2 C 12,6 C 7,3 km/h (2 Bft) 99,36 %
21.06.2010 13,2 C 13,2 C 13,3 C 80 % 1019,1 hPa 0,0 mm 0,5 km/h (0 Bft) NW 4,75 h 2,184 mm -- UV-I 228 W/m 9,7 C 13,2 C 2,4 km/h (1 Bft) 98,10 %
22.06.2010 16,0 C 16,0 C 16,2 C 73 % 1022,5 hPa 0,0 mm 1,8 km/h (1 Bft) NW 8,83 h 3,734 mm -- UV-I 348 W/m 10,8 C 16,0 C 4,8 km/h (1 Bft) 99,13 %
23.06.2010 17,5 C 17,3 C 17,8 C 70 % 1021,0 hPa 0,0 mm 1,1 km/h (1 Bft) NW 12,50 h 3,810 mm 4,2 UV-I 351 W/m 11,7 C 17,5 C 3,6 km/h (1 Bft) 98,93 %
24.06.2010 17,8 C 17,6 C 17,9 C 75 % 1016,7 hPa 0,0 mm 0,2 km/h (0 Bft) N-NW 13,08 h 4,547 mm 3,8 UV-I 412 W/m 12,9 C 17,8 C 1,2 km/h (1 Bft) 97,41 %
25.06.2010 17,5 C 17,4 C 17,6 C 81 % 1015,0 hPa 0,0 mm 2,0 km/h (1 Bft) NW 5,75 h 2,515 mm 2,0 UV-I 224 W/m 14,0 C 17,5 C 4,4 km/h (1 Bft) 99,79 %
26.06.2010 15,2 C 15,2 C 15,2 C 80 % 1019,0 hPa 0,0 mm 2,7 km/h (1 Bft) NW 9,75 h 3,251 mm 3,2 UV-I 312 W/m 11,6 C 15,2 C 6,4 km/h (2 Bft) 98,96 %
27.06.2010 17,1 C 17,1 C 17,3 C 81 % 1021,3 hPa 0,0 mm 0,8 km/h (0 Bft) N-NO 13,92 h 4,648 mm 4,2 UV-I 448 W/m 13,6 C 17,1 C 4,4 km/h (1 Bft) 99,15 %
28.06.2010 20,3 C 20,2 C 20,4 C 71 % 1019,2 hPa 0,0 mm 0,8 km/h (0 Bft) S 14,17 h 5,080 mm 3,9 UV-I 439 W/m 14,0 C 20,3 C 4,0 km/h (1 Bft) 97,51 %
29.06.2010 21,8 C 21,7 C 22,0 C 64 % 1016,8 hPa 0,2 mm 3,5 km/h (1 Bft) N-NW 11,58 h 4,597 mm 3,0 UV-I 370 W/m 14,0 C 21,8 C 7,3 km/h (2 Bft) 99,58 %
30.06.2010 19,0 C 18,9 C 19,1 C 67 % 1018,7 hPa 0,0 mm 1,5 km/h (1 Bft) NW 10,42 h 4,064 mm 3,3 UV-I 361 W/m 12,6 C 19,0 C 6,4 km/h (2 Bft) 98,91 %
01.07.2010 19,5 C 19,4 C 19,5 C 72 % 1016,3 hPa 0,0 mm 0,7 km/h (0 Bft) S 11,42 h 4,089 mm 3,6 UV-I 394 W/m 13,8 C 19,5 C 2,4 km/h (1 Bft) 99,33 %
02.07.2010 24,9 C 24,7 C 24,9 C 69 % 1015,3 hPa 0,0 mm 0,9 km/h (0 Bft) S-SO 13,42 h 4,724 mm 3,5 UV-I 394 W/m 18,3 C 24,9 C 2,0 km/h (1 Bft) 97,90 %
03.07.2010 25,2 C 25,1 C 25,4 C 66 % 1016,1 hPa 0,0 mm 1,7 km/h (1 Bft) S-SO 13,00 h 5,309 mm 3,7 UV-I 415 W/m 17,7 C 25,2 C 4,0 km/h (1 Bft) 97,88 %
04.07.2010 22,1 C 22,1 C 22,3 C 81 % 1017,3 hPa 0,0 mm 2,0 km/h (1 Bft) NW 7,00 h 3,378 mm 2,6 UV-I 287 W/m 18,6 C 22,1 C 7,3 km/h (2 Bft) 98,74 %
05.07.2010 19,3 C 19,3 C 19,4 C 84 % 1016,7 hPa 0,8 mm 1,9 km/h (1 Bft) NW 7,75 h 3,353 mm 3,3 UV-I 299 W/m 16,0 C 19,3 C 6,0 km/h (2 Bft) 98,75 %
06.07.2010 16,0 C 16,0 C 16,1 C 74 % 1020,1 hPa 1,0 mm 3,8 km/h (1 Bft) NW 7,33 h 2,921 mm 2,3 UV-I 266 W/m 11,3 C 16,0 C 10,1 km/h (2 Bft) 98,90 %
07.07.2010 17,0 C 17,0 C 17,2 C 75 % 1021,5 hPa 0,0 mm 0,5 km/h (0 Bft) NW 11,75 h 3,962 mm 3,8 UV-I 385 W/m 12,2 C 17,0 C 2,4 km/h (1 Bft) 97,16 %
08.07.2010 22,6 C 22,6 C 22,7 C 67 % 1018,7 hPa 0,0 mm 0,4 km/h (0 Bft) S 10,17 h 4,140 mm 3,6 UV-I 354 W/m 15,8 C 22,6 C 2,0 km/h (1 Bft) 99,38 %
09.07.2010 23,3 C 23,0 C 23,3 C 78 % 1017,5 hPa 0,0 mm 1,5 km/h (1 Bft) O-NO 11,83 h 4,623 mm 3,9 UV-I 407 W/m 18,8 C 23,3 C 4,0 km/h (1 Bft) 97,75 %
10.07.2010 26,1 C 26,0 C 26,3 C 66 % 1017,2 hPa 0,0 mm 0,8 km/h (0 Bft) NO 13,33 h 4,826 mm 3,5 UV-I 395 W/m 18,5 C 26,1 C 3,2 km/h (1 Bft) 98,11 %
11.07.2010 24,6 C 24,6 C 24,7 C 76 % 1016,1 hPa 0,6 mm 3,3 km/h (1 Bft) NW 11,58 h 3,708 mm 2,9 UV-I 314 W/m 19,9 C 24,6 C 10,1 km/h (2 Bft) 97,88 %
12.07.2010 23,8 C 23,8 C 23,9 C 84 % 1010,9 hPa 0,0 mm 1,0 km/h (0 Bft) N-NW 9,75 h 4,191 mm 4,0 UV-I 359 W/m 20,9 C 23,8 C 4,4 km/h (1 Bft) 98,05 %
13.07.2010 21,0 C 21,0 C 21,2 C 73 % 1010,3 hPa 0,4 mm 0,8 km/h (0 Bft) W-NW 10,75 h 3,988 mm 3,3 UV-I 367 W/m 15,7 C 21,0 C 5,2 km/h (1 Bft) 99,16 %
14.07.2010 25,0 C 25,0 C 25,1 C 67 % 1007,2 hPa 0,0 mm 2,6 km/h (1 Bft) S-SO 12,33 h 5,055 mm 4,0 UV-I 415 W/m 17,9 C 25,0 C 6,0 km/h (2 Bft) 99,35 %
15.07.2010 21,9 C 21,7 C 22,0 C 64 % 1012,1 hPa 0,2 mm 1,3 km/h (1 Bft) S-SO 8,83 h 3,785 mm 3,4 UV-I 329 W/m 14,4 C 21,9 C 6,0 km/h (2 Bft) 98,49 %
16.07.2010 23,9 C 23,8 C 24,0 C 63 % 1014,5 hPa 0,0 mm 0,8 km/h (0 Bft) S-SO 13,75 h 5,182 mm 4,4 UV-I 427 W/m 15,4 C 23,9 C 2,8 km/h (1 Bft) 100,00 %
17.07.2010 18,9 C 18,9 C 19,0 C 77 % 1018,0 hPa 1,2 mm 2,7 km/h (1 Bft) NW 5,75 h 2,692 mm 2,5 UV-I 238 W/m 14,6 C 18,9 C 8,1 km/h (2 Bft) 98,92 %
18.07.2010 18,1 C 17,9 C 18,2 C 64 % 1025,3 hPa 0,0 mm 1,5 km/h (1 Bft) NW 9,92 h 3,912 mm 3,3 UV-I 352 W/m 10,7 C 18,1 C 4,8 km/h (1 Bft) 97,92 %
19.07.2010 19,8 C 19,6 C 19,9 C 66 % 1022,5 hPa 0,0 mm 0,2 km/h (0 Bft) S-SO 11,83 h 4,547 mm 4,2 UV-I 413 W/m 12,6 C 19,8 C 1,6 km/h (1 Bft) 98,77 %
20.07.2010 21,9 C 21,8 C 22,0 C 59 % 1015,5 hPa 0,0 mm 0,8 km/h (0 Bft) S-SO 13,08 h 5,004 mm 4,3 UV-I 426 W/m 12,8 C 21,9 C 2,0 km/h (1 Bft) 98,66 %
21.07.2010 24,8 C 24,8 C 24,9 C 63 % 1007,1 hPa 0,0 mm 0,5 km/h (0 Bft) S-SO 12,50 h 4,724 mm 3,9 UV-I 407 W/m 16,3 C 24,8 C 3,2 km/h (1 Bft) 98,46 %
22.07.2010 21,3 C 21,3 C 21,4 C 71 % 1012,6 hPa 0,4 mm 1,2 km/h (1 Bft) NW 3,67 h 2,718 mm 2,8 UV-I 236 W/m 15,5 C 21,3 C 4,0 km/h (1 Bft) 99,80 %
23.07.2010 18,5 C 18,4 C 18,6 C 85 % 1015,9 hPa 0,6 mm 0,7 km/h (0 Bft) NW 3,58 h 1,905 mm 2,3 UV-I 199 W/m 15,5 C 18,5 C 2,0 km/h (1 Bft) 98,15 %
24.07.2010 17,2 C 17,2 C 17,3 C 75 % 1015,3 hPa 0,0 mm 8,3 km/h (2 Bft) NW 6,08 h 2,946 mm 2,4 UV-I 237 W/m 12,5 C 17,2 C 19,3 km/h (3 Bft) 99,36 %
25.07.2010 17,7 C 17,7 C 17,9 C 68 % 1012,3 hPa 0,0 mm 4,9 km/h (1 Bft) NW 7,92 h 3,556 mm 2,7 UV-I 303 W/m 11,7 C 17,7 C 13,7 km/h (3 Bft) 99,55 %
26.07.2010 17,3 C 17,2 C 17,4 C 74 % 1011,5 hPa 0,0 mm 1,2 km/h (1 Bft) S-SO 6,42 h 2,845 mm 3,0 UV-I 288 W/m 12,0 C 17,3 C 4,0 km/h (1 Bft) 99,34 %
27.07.2010 19,2 C 19,1 C 19,3 C 76 % 1014,9 hPa 0,0 mm 1,2 km/h (1 Bft) NW 6,00 h 3,099 mm 2,9 UV-I 299 W/m 14,5 C 19,2 C 4,4 km/h (1 Bft) 99,40 %
28.07.2010 16,6 C 16,5 C 16,7 C 86 % 1010,9 hPa 2,0 mm 1,9 km/h (1 Bft) W-NW 7,58 h 2,108 mm 1,8 UV-I 220 W/m 14,3 C 16,6 C 5,2 km/h (1 Bft) 97,70 %
29.07.2010 17,0 C 16,9 C 17,0 C 75 % 1006,4 hPa 0,0 mm 4,0 km/h (1 Bft) W-NW 6,92 h 2,997 mm 2,8 UV-I 269 W/m 12,3 C 17,0 C 13,7 km/h (3 Bft) 98,75 %
30.07.2010 15,4 C 15,3 C 15,4 C 83 % 1012,4 hPa 0,6 mm 2,4 km/h (1 Bft) W 4,33 h 1,880 mm 2,0 UV-I 198 W/m 12,4 C 15,4 C 6,4 km/h (2 Bft) 97,85 %
31.07.2010 18,6 C 18,5 C 18,8 C 78 % 1013,8 hPa 0,8 mm 1,5 km/h (1 Bft) S 8,00 h 3,556 mm 3,3 UV-I 337 W/m 13,7 C 18,6 C 8,0 km/h (2 Bft) 96,87 %
01.08.2010 20,0 C 19,9 C 20,0 C 87 % 1012,2 hPa 15,4 mm 0,9 km/h (0 Bft) W-NW 5,58 h 2,438 mm 2,9 UV-I 241 W/m 17,5 C 20,0 C 2,4 km/h (1 Bft) 99,40 %
02.08.2010 18,5 C 18,5 C 18,7 C 84 % 1013,3 hPa 1,2 mm 0,3 km/h (0 Bft) NW 2,67 h 1,880 mm 2,1 UV-I 198 W/m 15,6 C 18,5 C 2,0 km/h (1 Bft) 98,71 %
03.08.2010 17,1 C 17,1 C 17,3 C 85 % 1011,9 hPa 3,0 mm 1,5 km/h (1 Bft) NW 5,17 h 2,311 mm 2,3 UV-I 235 W/m 14,4 C 17,1 C 4,4 km/h (1 Bft) 98,08 %
04.08.2010 16,8 C 16,8 C 16,9 C 87 % 1007,2 hPa 8,4 mm 1,5 km/h (1 Bft) S-SO 7,92 h 2,794 mm 2,8 UV-I 286 W/m 14,2 C 16,8 C 4,0 km/h (1 Bft) 98,23 %
05.08.2010 16,2 C 16,2 C 16,2 C 97 % 1008,7 hPa 1,2 mm 0,1 km/h (0 Bft) S-SO 0,75 h 1,016 mm 1,5 UV-I 123 W/m 15,7 C 16,2 C 0,8 km/h (0 Bft) 98,91 %
06.08.2010 16,4 C 16,3 C 16,4 C 88 % 1016,3 hPa 0,4 mm 1,3 km/h (1 Bft) N-NW 4,67 h 1,753 mm 1,9 UV-I 197 W/m 14,2 C 16,4 C 3,2 km/h (1 Bft) 98,96 %
07.08.2010 18,1 C 18,0 C 18,1 C 74 % 1016,1 hPa 0,0 mm 0,4 km/h (0 Bft) N-NW 10,58 h 3,810 mm 3,3 UV-I 393 W/m 13,0 C 18,1 C 2,4 km/h (1 Bft) 98,46 %
08.08.2010 18,2 C 18,2 C 18,2 C 88 % 1013,8 hPa 0,0 mm 0,6 km/h (0 Bft) NW 3,75 h 1,676 mm 1,9 UV-I 178 W/m 16,0 C 18,2 C 2,4 km/h (1 Bft) 98,35 %
09.08.2010 16,9 C 16,9 C 17,0 C 88 % 1015,3 hPa 0,0 mm 0,7 km/h (0 Bft) NW 3,08 h 1,727 mm 2,0 UV-I 187 W/m 14,7 C 16,9 C 2,0 km/h (1 Bft) 99,35 %
10.08.2010 19,4 C 19,3 C 19,4 C 76 % 1013,0 hPa 0,0 mm 0,6 km/h (0 Bft) S 7,92 h 3,124 mm 3,0 UV-I 321 W/m 14,7 C 19,4 C 2,4 km/h (1 Bft) 97,14 %
11.08.2010 17,6 C 17,6 C 17,8 C 91 % 1011,9 hPa 3,6 mm 0,9 km/h (0 Bft) S-SO 4,25 h 1,727 mm 2,1 UV-I 196 W/m 16,0 C 17,6 C 3,2 km/h (1 Bft) 98,51 %
12.08.2010 17,5 C 17,5 C 17,5 C 98 % 1012,1 hPa 37,2 mm 1,0 km/h (0 Bft) NW 0,33 h 0,660 mm 1,5 UV-I 80 W/m 17,1 C 17,5 C 3,6 km/h (1 Bft) 99,79 %
13.08.2010 17,7 C 17,5 C 17,7 C 85 % 1017,2 hPa 0,0 mm 0,1 km/h (0 Bft) W-NW 6,92 h 2,235 mm 2,5 UV-I 255 W/m 15,0 C 17,7 C 1,2 km/h (1 Bft) 98,56 %
14.08.2010 16,0 C 15,9 C 16,0 C 94 % 1017,3 hPa 8,6 mm 3,5 km/h (1 Bft) N-NW 0,00 h 0,610 mm 0,8 UV-I 71 W/m 15,0 C 16,0 C 8,0 km/h (2 Bft) 98,67 %
15.08.2010 18,4 C 18,4 C 18,4 C 92 % 1011,7 hPa 5,0 mm 2,2 km/h (1 Bft) N 0,92 h 1,321 mm 1,6 UV-I 147 W/m 17,1 C 18,4 C 10,5 km/h (2 Bft) 98,94 %
16.08.2010 17,4 C 17,3 C 17,5 C 92 % 1008,9 hPa 1,6 mm 1,0 km/h (0 Bft) S 3,75 h 1,575 mm 1,7 UV-I 183 W/m 16,0 C 17,4 C 3,2 km/h (1 Bft) 99,36 %
17.08.2010 17,6 C 17,6 C 17,6 C 89 % 1002,5 hPa 3,2 mm 0,1 km/h (0 Bft) NW 5,17 h 1,981 mm 3,1 UV-I 261 W/m 15,6 C 17,6 C 0,4 km/h (0 Bft) 98,95 %
18.08.2010 16,8 C 16,5 C 16,8 C 94 % 1002,5 hPa 24,2 mm 0,8 km/h (0 Bft) W 4,58 h 1,803 mm 2,2 UV-I 223 W/m 15,7 C 16,8 C 5,6 km/h (1 Bft) 98,17 %
19.08.2010 13,7 C 13,7 C 13,8 C 94 % 1013,6 hPa 2,8 mm 0,6 km/h (0 Bft) W-NW 7,00 h 1,981 mm 1,8 UV-I 239 W/m 12,8 C 13,7 C 3,2 km/h (1 Bft) 99,56 %
20.08.2010 17,2 C 17,0 C 17,2 C 85 % 1019,3 hPa 0,0 mm 0,8 km/h (0 Bft) S-SO 9,08 h 2,515 mm 2,9 UV-I 281 W/m 14,4 C 17,2 C 3,6 km/h (1 Bft) 98,73 %
21.08.2010 19,7 C 19,6 C 19,8 C 87 % 1018,8 hPa 0,0 mm 0,7 km/h (0 Bft) W-NW 5,67 h 2,311 mm 2,5 UV-I 252 W/m 17,4 C 19,7 C 3,6 km/h (1 Bft) 99,60 %
22.08.2010 19,1 C 19,0 C 19,1 C 93 % 1012,3 hPa 3,2 mm 0,7 km/h (0 Bft) N-NW 4,92 h 2,032 mm 2,7 UV-I 219 W/m 17,8 C 19,1 C 3,2 km/h (1 Bft) 98,64 %
23.08.2010 17,8 C 17,8 C 17,8 C 92 % 999,9 hPa 6,8 mm 2,1 km/h (1 Bft) S-SO 1,25 h 0,914 mm 1,1 UV-I 113 W/m 16,4 C 17,8 C 8,1 km/h (2 Bft) 98,78 %
24.08.2010 16,1 C 16,1 C 16,2 C 76 % 1002,8 hPa 3,6 mm 2,3 km/h (1 Bft) W 6,58 h 2,540 mm 2,4 UV-I 280 W/m 11,7 C 16,1 C 10,9 km/h (2 Bft) 98,42 %
25.08.2010 14,3 C 14,3 C 14,3 C 88 % 1011,1 hPa 0,6 mm 3,2 km/h (1 Bft) W 4,17 h 1,981 mm 2,0 UV-I 213 W/m 12,2 C 14,3 C 12,0 km/h (2 Bft) 99,39 %
26.08.2010 14,6 C 14,6 C 14,6 C 86 % 1008,1 hPa 0,4 mm 0,0 km/h (0 Bft) N 3,08 h 1,295 mm 1,5 UV-I 173 W/m 12,3 C 14,6 C 0,0 km/h (0 Bft) 97,92 %
27.08.2010 13,2 C 13,2 C 13,2 C 96 % 1003,5 hPa 20,0 mm 0,9 km/h (0 Bft) N-NO 0,00 h 0,432 mm 0,7 UV-I 58 W/m 12,6 C 13,2 C 5,6 km/h (1 Bft) 99,12 %
28.08.2010 12,0 C 11,9 C 12,1 C 94 % 1010,7 hPa 3,2 mm 2,7 km/h (1 Bft) NW 5,33 h 1,880 mm 2,1 UV-I 272 W/m 11,0 C 12,0 C 7,3 km/h (2 Bft) 100,00 %
29.08.2010 13,0 C 12,8 C 13,0 C 93 % 1005,1 hPa 6,6 mm 1,8 km/h (1 Bft) S-SO 3,08 h 1,321 mm 1,7 UV-I 182 W/m 11,8 C 13,0 C 8,5 km/h (2 Bft) 97,29 %
30.08.2010 12,0 C 12,0 C 12,0 C 96 % 1011,3 hPa 16,8 mm 2,0 km/h (1 Bft) N-NW 1,58 h 0,838 mm 1,1 UV-I 115 W/m 11,3 C 12,0 C 6,1 km/h (2 Bft) 99,35 %
31.08.2010 13,7 C 13,6 C 13,8 C 82 % 1019,2 hPa 0,4 mm 4,4 km/h (1 Bft) NW 7,50 h 2,718 mm 2,6 UV-I 320 W/m 10,5 C 13,7 C 10,1 km/h (2 Bft) 98,99 %
01.09.2010 14,4 C 14,4 C 14,4 C 86 % 1017,3 hPa 0,0 mm 2,5 km/h (1 Bft) NW 5,17 h 1,778 mm 2,0 UV-I 216 W/m 11,9 C 14,4 C 10,0 km/h (2 Bft) 99,54 %
02.09.2010 13,5 C 13,5 C 13,7 C 89 % 1017,6 hPa 0,0 mm 1,0 km/h (0 Bft) NW 4,83 h 1,880 mm 1,9 UV-I 234 W/m 11,6 C 13,5 C 5,7 km/h (1 Bft) 98,75 %
03.09.2010 10,8 C 10,8 C 10,9 C 85 % 1019,7 hPa 0,0 mm 1,9 km/h (1 Bft) N-NW 6,92 h 2,184 mm 2,3 UV-I 276 W/m 8,0 C 10,8 C 2,8 km/h (1 Bft) 99,33 %
04.09.2010 11,7 C 11,7 C 11,8 C 86 % 1022,0 hPa 0,0 mm 2,2 km/h (1 Bft) NW 6,75 h 2,108 mm 2,2 UV-I 276 W/m 9,3 C 11,7 C 6,4 km/h (2 Bft) 98,36 %
05.09.2010 10,9 C 10,9 C 11,0 C 84 % 1025,5 hPa 0,0 mm 0,3 km/h (0 Bft) O-NO 6,67 h 2,057 mm 2,2 UV-I 275 W/m 8,2 C 10,9 C 2,0 km/h (1 Bft) 98,12 %
06.09.2010 10,5 C 10,5 C 10,6 C 80 % 1021,7 hPa 0,0 mm 0,5 km/h (0 Bft) O-SO 8,42 h 2,464 mm 2,4 UV-I 333 W/m 7,0 C 10,5 C 2,8 km/h (1 Bft) 98,18 %
07.09.2010 11,9 C 11,9 C 12,0 C 85 % 1013,7 hPa 0,0 mm 2,0 km/h (1 Bft) O-SO 6,08 h 1,803 mm 1,9 UV-I 231 W/m 9,3 C 11,9 C 6,4 km/h (2 Bft) 99,78 %
08.09.2010 14,2 C 14,2 C 14,2 C 81 % 1010,5 hPa 0,0 mm 2,1 km/h (1 Bft) O-SO 2,67 h 1,372 mm 1,6 UV-I 166 W/m 10,9 C 14,2 C 6,4 km/h (2 Bft) 98,75 %
09.09.2010 13,0 C 12,9 C 13,1 C 93 % 1012,9 hPa 7,6 mm 0,1 km/h (0 Bft) O-SO 0,00 h 0,406 mm 0,6 UV-I 56 W/m 11,9 C 13,0 C 1,2 km/h (1 Bft) 99,40 %
10.09.2010 14,7 C 14,7 C 14,7 C 91 % 1017,8 hPa 0,2 mm 0,6 km/h (0 Bft) W 4,08 h 1,397 mm 1,6 UV-I 187 W/m 13,2 C 14,7 C 4,8 km/h (1 Bft) 98,47 %
11.09.2010 16,1 C 15,9 C 16,1 C 92 % 1018,3 hPa 0,2 mm 2,0 km/h (1 Bft) S 6,00 h 1,499 mm 2,0 UV-I 208 W/m 14,6 C 16,1 C 5,6 km/h (1 Bft) 98,93 %
12.09.2010 16,4 C 16,4 C 16,4 C 92 % 1018,0 hPa 10,4 mm 1,1 km/h (0 Bft) NW 5,25 h 1,524 mm 1,8 UV-I 208 W/m 15,0 C 16,4 C 4,4 km/h (1 Bft) 99,34 %
13.09.2010 13,6 C 13,5 C 13,6 C 90 % 1020,9 hPa 0,4 mm 1,0 km/h (0 Bft) NW 3,67 h 1,219 mm 1,5 UV-I 167 W/m 12,0 C 13,6 C 5,6 km/h (1 Bft) 98,56 %
14.09.2010 15,1 C 15,0 C 15,1 C 97 % 1008,8 hPa 14,4 mm 1,9 km/h (1 Bft) S-SO 0,00 h 0,432 mm 0,8 UV-I 66 W/m 14,6 C 15,0 C 8,8 km/h (2 Bft) 98,76 %
15.09.2010 13,5 C 13,5 C 13,6 C 78 % 1001,2 hPa 3,0 mm 3,1 km/h (1 Bft) S-SW 7,33 h 2,032 mm 1,8 UV-I 279 W/m 9,6 C 13,5 C 10,5 km/h (2 Bft) 97,89 %
16.09.2010 11,4 C 11,4 C 11,5 C 92 % 1003,1 hPa 6,4 mm 1,3 km/h (1 Bft) W 3,00 h 1,041 mm 1,2 UV-I 158 W/m 10,0 C 11,4 C 7,7 km/h (2 Bft) 99,80 %
17.09.2010 10,9 C 10,9 C 10,9 C 92 % 1006,1 hPa 1,0 mm 3,0 km/h (1 Bft) W 4,75 h 1,295 mm 1,2 UV-I 187 W/m 9,7 C 10,9 C 12,9 km/h (3 Bft) 98,95 %
18.09.2010 9,8 C 9,8 C 10,0 C 93 % 1011,9 hPa 2,4 mm 2,0 km/h (1 Bft) W 6,25 h 1,422 mm 1,6 UV-I 228 W/m 8,7 C 9,8 C 8,8 km/h (2 Bft) 98,26 %
19.09.2010 12,0 C 12,0 C 12,0 C 89 % 1012,7 hPa 1,2 mm 2,6 km/h (1 Bft) W-SW 4,30 h 1,168 mm 1,5 UV-I 178 W/m 10,2 C 12,0 C 10,9 km/h (2 Bft) 98,79 %
20.09.2010 13,4 C 13,4 C 13,4 C 96 % 1010,9 hPa 3,8 mm 1,0 km/h (0 Bft) S-SO 0,08 h 0,457 mm 0,8 UV-I 81 W/m 12,8 C 13,4 C 6,0 km/h (2 Bft) 99,14 %
21.09.2010 11,2 C 11,2 C 11,3 C 89 % 1020,0 hPa 0,2 mm 1,9 km/h (1 Bft) NW 5,17 h 1,753 mm 1,8 UV-I 233 W/m 9,2 C 11,2 C 6,4 km/h (2 Bft) 100,00 %
22.09.2010 11,7 C 11,6 C 11,7 C 89 % 1020,2 hPa 0,0 mm 0,3 km/h (0 Bft) S 8,17 h 1,905 mm 2,3 UV-I 288 W/m 9,8 C 11,7 C 1,6 km/h (1 Bft) 98,02 %
23.09.2010 14,5 C 14,5 C 14,6 C 91 % 1009,8 hPa 0,0 mm 0,7 km/h (0 Bft) S 7,58 h 1,981 mm 2,0 UV-I 277 W/m 13,0 C 14,5 C 2,0 km/h (1 Bft) 98,71 %
24.09.2010 15,4 C 15,4 C 15,5 C 93 % 1000,0 hPa 3,2 mm 0,7 km/h (0 Bft) S-SO 3,83 h 1,067 mm 1,3 UV-I 160 W/m 14,3 C 15,4 C 4,0 km/h (1 Bft) 99,36 %
25.09.2010 12,0 C 12,0 C 12,0 C 89 % 1003,9 hPa 1,4 mm 1,1 km/h (0 Bft) NW 2,83 h 0,940 mm 1,4 UV-I 150 W/m 10,1 C 12,0 C 4,0 km/h (1 Bft) 99,15 %
26.09.2010 13,0 C 12,9 C 13,0 C 98 % 1006,3 hPa 17,6 mm 2,8 km/h (1 Bft) NW 0,00 h 0,178 mm 0,0 UV-I 29 W/m 12,7 C 13,0 C 10,9 km/h (2 Bft) 98,50 %
27.09.2010 13,4 C 13,4 C 13,4 C 94 % 1008,4 hPa 0,4 mm 7,7 km/h (2 Bft) N 0,00 h 0,127 mm 0,2 UV-I 32 W/m 12,5 C 13,4 C 20,9 km/h (4 Bft) 98,45 %
28.09.2010 10,1 C 10,1 C 10,1 C 89 % 1016,3 hPa 0,2 mm 2,2 km/h (1 Bft) N-NW 0,00 h 0,381 mm 0,6 UV-I 59 W/m 8,4 C 10,1 C 5,6 km/h (1 Bft) 99,37 %
29.09.2010 7,6 C 7,6 C 7,7 C 85 % 1021,4 hPa 0,0 mm 0,3 km/h (0 Bft) N-NW 1,00 h 0,686 mm 1,0 UV-I 106 W/m 5,2 C 7,6 C 1,6 km/h (1 Bft) 99,36 %
30.09.2010 7,4 C 7,3 C 7,5 C 87 % 1019,0 hPa 0,0 mm 0,6 km/h (0 Bft) S-SO 5,08 h 1,016 mm 1,4 UV-I 179 W/m 5,3 C 7,4 C 2,4 km/h (1 Bft) 98,72 %
01.10.2010 7,2 C 7,1 C 7,2 C 86 % 1016,8 hPa 0,0 mm 2,0 km/h (1 Bft) SO 7,50 h 1,651 mm 1,6 UV-I 272 W/m 4,7 C 7,2 C 6,4 km/h (2 Bft) 99,79 %
02.10.2010 10,5 C 10,5 C 10,5 C 89 % 1014,6 hPa 0,0 mm 2,9 km/h (1 Bft) S-SO 5,00 h 0,940 mm 1,2 UV-I 164 W/m 8,7 C 10,5 C 9,3 km/h (2 Bft) 98,68 %
03.10.2010 13,1 C 13,1 C 13,2 C 89 % 1010,3 hPa 0,2 mm 5,2 km/h (1 Bft) S-SO 2,92 h 0,914 mm 1,0 UV-I 140 W/m 11,4 C 13,1 C 12,5 km/h (3 Bft) 98,72 %
04.10.2010 13,0 C 12,9 C 13,0 C 84 % 1007,0 hPa 0,0 mm 3,3 km/h (1 Bft) S-SO 6,75 h 1,549 mm 1,5 UV-I 238 W/m 10,2 C 12,8 C 9,6 km/h (2 Bft) 98,75 %
05.10.2010 13,7 C 13,6 C 13,7 C 89 % 1008,1 hPa 0,0 mm 2,5 km/h (1 Bft) S-SO 6,58 h 1,397 mm 1,5 UV-I 210 W/m 11,9 C 13,7 C 8,4 km/h (2 Bft) 99,32 %
06.10.2010 15,4 C 15,4 C 15,4 C 91 % 1013,5 hPa 0,4 mm 3,2 km/h (1 Bft) S-SO 6,42 h 1,295 mm 1,5 UV-I 204 W/m 13,8 C 15,4 C 9,7 km/h (2 Bft) 99,39 %
07.10.2010 14,0 C 14,0 C 14,0 C 96 % 1022,9 hPa 1,0 mm 0,0 km/h (0 Bft) S-SO 0,00 h 0,305 mm 0,5 UV-I 51 W/m 13,4 C 14,0 C 0,8 km/h (0 Bft) 99,55 %
08.10.2010 11,9 C 11,9 C 12,0 C 88 % 1024,8 hPa 0,2 mm 0,5 km/h (0 Bft) O-SO 8,25 h 1,143 mm 1,3 UV-I 193 W/m 9,9 C 11,9 C 2,4 km/h (1 Bft) 98,46 %
09.10.2010 10,0 C 10,0 C 10,1 C 79 % 1023,2 hPa 0,0 mm 0,8 km/h (0 Bft) O-SO 6,08 h 1,372 mm 1,6 UV-I 230 W/m 6,4 C 10,0 C 3,2 km/h (1 Bft) 100,00 %
10.10.2010 7,5 C 7,4 C 7,5 C 84 % 1019,8 hPa 0,0 mm 0,3 km/h (0 Bft) O-SO 6,67 h 1,245 mm 1,5 UV-I 230 W/m 4,8 C 7,5 C 1,6 km/h (1 Bft) 98,90 %
11.10.2010 6,9 C 6,9 C 7,0 C 89 % 1019,4 hPa 0,2 mm 0,2 km/h (0 Bft) N 5,17 h 0,965 mm 1,2 UV-I 186 W/m 5,1 C 6,9 C 0,8 km/h (0 Bft) 99,34 %
12.10.2010 7,7 C 7,7 C 7,8 C 86 % 1018,6 hPa 0,0 mm 0,1 km/h (0 Bft) NW 3,83 h 0,787 mm 1,2 UV-I 159 W/m 5,3 C 7,7 C 0,8 km/h (0 Bft) 98,31 %
13.10.2010 5,9 C 5,9 C 6,0 C 86 % 1018,0 hPa 0,0 mm 0,2 km/h (0 Bft) S 5,83 h 1,016 mm 1,3 UV-I 188 W/m 3,6 C 5,9 C 1,2 km/h (1 Bft) 98,44 %
14.10.2010 10,1 C 10,1 C 10,1 C 86 % 1012,4 hPa 0,0 mm 4,4 km/h (1 Bft) NW 2,00 h 0,787 mm 1,1 UV-I 124 W/m 7,8 C 10,1 C 12,5 km/h (3 Bft) 98,06 %
15.10.2010 8,9 C 8,9 C 9,1 C 86 % 1008,9 hPa 5,0 mm 0,5 km/h (0 Bft) NW 5,00 h 0,889 mm 1,1 UV-I 151 W/m 6,7 C 8,9 C 3,6 km/h (1 Bft) 98,35 %
16.10.2010 5,4 C 5,4 C 5,5 C 87 % 1016,8 hPa 1,2 mm 1,6 km/h (1 Bft) O-NO 4,42 h 0,838 mm 0,9 UV-I 171 W/m 3,4 C 5,4 C 10,8 km/h (2 Bft) 98,74 %
17.10.2010 5,3 C 5,3 C 5,3 C 82 % 1023,5 hPa 0,0 mm 0,5 km/h (0 Bft) N-NW 5,67 h 0,965 mm 1,3 UV-I 197 W/m 2,3 C 5,3 C 2,4 km/h (1 Bft) 98,16 %
18.10.2010 5,9 C 5,8 C 5,9 C 86 % 1015,9 hPa 0,2 mm 3,3 km/h (1 Bft) S 5,58 h 0,864 mm 1,2 UV-I 192 W/m 3,6 C 5,4 C 9,3 km/h (2 Bft) 98,15 %
19.10.2010 7,6 C 7,6 C 7,6 C 92 % 999,5 hPa 4,0 mm 0,5 km/h (0 Bft) S 3,00 h 0,610 mm 0,9 UV-I 121 W/m 6,4 C 7,6 C 4,4 km/h (1 Bft) 99,35 %
20.10.2010 5,9 C 5,9 C 6,0 C 89 % 1003,3 hPa 4,4 mm 8,6 km/h (2 Bft) W-NW 5,25 h 0,965 mm 0,9 UV-I 168 W/m 4,1 C 4,0 C 20,5 km/h (4 Bft) 99,58 %
21.10.2010 6,0 C 5,9 C 6,0 C 92 % 1012,3 hPa 5,0 mm 2,3 km/h (1 Bft) W 2,92 h 0,635 mm 0,9 UV-I 158 W/m 4,8 C 6,0 C 12,8 km/h (3 Bft) 99,32 %
22.10.2010 8,6 C 8,6 C 8,6 C 93 % 1012,3 hPa 2,2 mm 2,1 km/h (1 Bft) W-SW 1,83 h 0,432 mm 0,8 UV-I 98 W/m 7,5 C 8,4 C 11,2 km/h (2 Bft) 98,66 %
23.10.2010 7,0 C 7,0 C 7,0 C 88 % 1002,3 hPa 1,6 mm 4,9 km/h (1 Bft) S 5,33 h 0,940 mm 1,0 UV-I 178 W/m 5,0 C 6,2 C 12,9 km/h (3 Bft) 99,39 %
24.10.2010 6,9 C 6,9 C 7,0 C 87 % 1001,2 hPa 7,4 mm 8,3 km/h (2 Bft) S 0,00 h 0,305 mm 0,4 UV-I 42 W/m 4,8 C 5,4 C 23,3 km/h (4 Bft) 99,37 %
25.10.2010 5,2 C 5,2 C 5,3 C 86 % 1017,9 hPa 0,4 mm 2,7 km/h (1 Bft) NW 5,75 h 0,914 mm 0,9 UV-I 182 W/m 3,0 C 5,2 C 9,3 km/h (2 Bft) 98,53 %
26.10.2010 5,3 C 5,3 C 5,4 C 87 % 1024,9 hPa 0,2 mm 0,1 km/h (0 Bft) W-NW 5,83 h 0,711 mm 0,9 UV-I 183 W/m 3,2 C 5,3 C 1,2 km/h (1 Bft) 99,37 %
27.10.2010 7,4 C 7,4 C 7,4 C 93 % 1018,0 hPa 3,4 mm 2,3 km/h (1 Bft) S-SO 0,00 h 0,203 mm 0,0 UV-I 35 W/m 6,4 C 7,1 C 8,8 km/h (2 Bft) 99,37 %
28.10.2010 9,4 C 9,3 C 9,4 C 97 % 1014,9 hPa 2,2 mm 0,1 km/h (0 Bft) S 0,00 h 0,152 mm 0,2 UV-I 41 W/m 8,9 C 9,3 C 2,0 km/h (1 Bft) 99,78 %
29.10.2010 10,1 C 10,1 C 10,1 C 91 % 1008,4 hPa 0,4 mm 4,4 km/h (1 Bft) S-SO 5,92 h 0,762 mm 0,9 UV-I 157 W/m 8,6 C 9,8 C 10,9 km/h (2 Bft) 99,08 %
30.10.2010 11,5 C 11,5 C 11,6 C 88 % 1002,6 hPa 0,2 mm 0,8 km/h (0 Bft) S 2,67 h 0,559 mm 0,8 UV-I 117 W/m 9,5 C 11,5 C 4,0 km/h (1 Bft) 99,12 %
31.10.2010 9,1 C 9,1 C 9,1 C 96 % 1006,5 hPa 1,4 mm 0,1 km/h (0 Bft) NO 0,00 h 0,152 mm 0,0 UV-I 41 W/m 8,4 C 9,1 C 2,0 km/h (1 Bft) 99,79 %
01.11.2010 9,2 C 9,2 C 9,2 C 94 % 1010,8 hPa 0,2 mm 0,8 km/h (0 Bft) N 0,00 h 0,254 mm 0,3 UV-I 55 W/m 8,3 C 9,2 C 2,4 km/h (1 Bft) 99,35 %
02.11.2010 9,5 C 9,5 C 9,5 C 95 % 1009,3 hPa 0,2 mm 2,8 km/h (1 Bft) S 0,00 h 0,203 mm 0,3 UV-I 48 W/m 8,6 C 9,3 C 8,4 km/h (2 Bft) 99,32 %
03.11.2010 10,3 C 10,3 C 10,3 C 89 % 1006,9 hPa 4,8 mm 3,5 km/h (1 Bft) W-SW 1,25 h 0,356 mm 0,5 UV-I 71 W/m 8,6 C 10,3 C 15,3 km/h (3 Bft) 98,54 %
04.11.2010 12,4 C 12,4 C 12,4 C 98 % 1009,2 hPa 31,4 mm 3,7 km/h (1 Bft) W-SW 0,00 h 0,127 mm 0,0 UV-I 27 W/m 12,0 C 12,4 C 9,7 km/h (2 Bft) 99,15 %
05.11.2010 11,4 C 11,4 C 11,4 C 91 % 1012,3 hPa 13,8 mm 3,9 km/h (1 Bft) W-SW 3,67 h 0,762 mm 0,7 UV-I 133 W/m 9,8 C 11,4 C 11,2 km/h (2 Bft) 99,58 %
06.11.2010 6,4 C 6,4 C 6,4 C 88 % 1008,7 hPa 8,6 mm 3,5 km/h (1 Bft) W-NW 2,92 h 0,610 mm 0,8 UV-I 120 W/m 4,6 C 5,9 C 9,6 km/h (2 Bft) 100,00 %
07.11.2010 1,4 C 1,3 C 1,4 C 89 % 1004,6 hPa 0,0 mm 0,2 km/h (0 Bft) N-NW 4,50 h 0,457 mm 0,6 UV-I 125 W/m -0,4 C 1,4 C 0,8 km/h (0 Bft) 98,71 %
08.11.2010 2,2 C 2,1 C 2,2 C 93 % 987,9 hPa 0,2 mm 2,4 km/h (1 Bft) O-SO 1,25 h 0,305 mm 0,5 UV-I 82 W/m 1,1 C 1,7 C 7,6 km/h (2 Bft) 99,18 %
09.11.2010 4,5 C 4,4 C 4,5 C 96 % 983,1 hPa 10,2 mm 0,1 km/h (0 Bft) N-NO 0,92 h 0,127 mm 0,0 UV-I 32 W/m 3,9 C 4,5 C 1,2 km/h (1 Bft) 98,96 %
10.11.2010 5,2 C 5,1 C 5,2 C 96 % 991,7 hPa 1,6 mm 2,8 km/h (1 Bft) NW 0,00 h 0,102 mm 0,0 UV-I 37 W/m 4,6 C 4,6 C 6,4 km/h (2 Bft) 99,59 %
11.11.2010 4,3 C 4,3 C 4,3 C 92 % 991,8 hPa 3,8 mm 9,4 km/h (2 Bft) S 3,50 h 0,635 mm 0,6 UV-I 124 W/m 3,2 C 2,4 C 18,5 km/h (3 Bft) 98,56 %
12.11.2010 9,3 C 9,3 C 9,3 C 83 % 984,4 hPa 0,8 mm 9,6 km/h (2 Bft) SW 0,67 h 0,508 mm 0,2 UV-I 44 W/m 6,4 C 8,4 C 24,1 km/h (4 Bft) 98,53 %
13.11.2010 8,2 C 8,2 C 8,2 C 88 % 993,0 hPa 0,0 mm 1,2 km/h (1 Bft) SW 1,33 h 0,356 mm 0,5 UV-I 66 W/m 6,3 C 8,2 C 3,6 km/h (1 Bft) 99,10 %
14.11.2010 11,1 C 11,1 C 11,1 C 98 % 996,3 hPa 8,0 mm 3,1 km/h (1 Bft) S 0,00 h 0,127 mm 0,0 UV-I 28 W/m 10,8 C 11,1 C 8,9 km/h (2 Bft) 99,19 %
15.11.2010 6,8 C 6,8 C 6,8 C 88 % 1014,0 hPa 0,0 mm 2,2 km/h (1 Bft) W-SW 4,83 h 0,635 mm 0,6 UV-I 116 W/m 4,8 C 6,5 C 7,2 km/h (2 Bft) 98,56 %
16.11.2010 5,6 C 5,6 C 5,6 C 93 % 1023,3 hPa 0,0 mm 0,9 km/h (0 Bft) O-NO 3,25 h 0,279 mm 0,5 UV-I 82 W/m 4,5 C 5,6 C 5,6 km/h (1 Bft) 99,17 %
17.11.2010 5,0 C 5,0 C 5,0 C 91 % 1014,9 hPa 1,6 mm 3,7 km/h (1 Bft) O-NO 0,83 h 0,279 mm 0,3 UV-I 67 W/m 3,6 C 5,0 C 13,3 km/h (3 Bft) 99,60 %
18.11.2010 5,8 C 5,8 C 5,8 C 96 % 1011,2 hPa 5,6 mm 1,0 km/h (0 Bft) O 0,00 h 0,000 mm 0,0 UV-I 15 W/m 5,2 C 5,8 C 5,2 km/h (1 Bft) 99,37 %
19.11.2010 5,0 C 5,0 C 5,0 C 97 % 1014,0 hPa 4,6 mm 0,1 km/h (0 Bft) W 0,00 h 0,127 mm 0,0 UV-I 29 W/m 4,5 C 5,0 C 0,8 km/h (0 Bft) 99,77 %
20.11.2010 4,6 C 4,6 C 4,6 C 97 % 1015,8 hPa 0,0 mm 0,0 km/h (0 Bft) S 0,08 h 0,152 mm 0,0 UV-I 49 W/m 4,1 C 4,6 C 0,4 km/h (0 Bft) 98,66 %
21.11.2010 4,0 C 4,0 C 4,0 C 97 % 1013,2 hPa 0,0 mm 0,7 km/h (0 Bft) N 0,00 h 0,152 mm 0,0 UV-I 53 W/m 3,6 C 4,0 C 2,4 km/h (1 Bft) 97,70 %
22.11.2010 4,9 C 4,9 C 5,0 C 91 % 1002,3 hPa 0,0 mm 10,4 km/h (2 Bft) N 0,67 h 0,330 mm 0,3 UV-I 47 W/m 3,6 C 2,8 C 21,7 km/h (4 Bft) 99,36 %
23.11.2010 2,4 C 2,4 C 2,4 C 95 % 995,7 hPa 6,0 mm 8,3 km/h (2 Bft) N-NW 0,00 h 0,127 mm 0,0 UV-I 40 W/m 1,7 C 0,0 C 19,3 km/h (3 Bft) 99,17 %
24.11.2010 0,1 C 0,1 C 0,1 C 86 % 1002,2 hPa 0,6 mm 6,6 km/h (2 Bft) NW 0,00 h 0,127 mm 0,0 UV-I 24 W/m -2,0 C -2,2 C 15,7 km/h (3 Bft) 99,80 %
25.11.2010 -1,3 C -1,3 C -1,3 C 92 % 1002,9 hPa 0,0 mm 1,8 km/h (1 Bft) W-NW 3,67 h 0,229 mm 0,4 UV-I 85 W/m -2,5 C -1,3 C 4,4 km/h (1 Bft) 98,96 %
26.11.2010 -0,2 C -0,2 C -0,2 C 93 % 1003,5 hPa 0,0 mm 1,0 km/h (0 Bft) NW 0,83 h 0,102 mm 0,0 UV-I 46 W/m -1,3 C -0,2 C 4,4 km/h (1 Bft) 98,96 %
27.11.2010 -4,4 C -4,4 C -4,4 C 88 % 1007,5 hPa 0,0 mm 0,1 km/h (0 Bft) NW 4,00 h 0,279 mm 0,5 UV-I 112 W/m -6,1 C -4,4 C 0,8 km/h (0 Bft) 97,99 %
28.11.2010 -2,9 C -2,9 C -2,9 C 89 % 1010,6 hPa 0,0 mm 2,5 km/h (1 Bft) O 3,25 h 0,229 mm 0,5 UV-I 93 W/m -4,5 C -3,8 C 6,4 km/h (2 Bft) 99,38 %
29.11.2010 -0,1 C -0,1 C -0,1 C 81 % 1013,3 hPa 0,0 mm 8,3 km/h (2 Bft) O 0,75 h 0,381 mm 0,4 UV-I 60 W/m -3,0 C -2,9 C 18,9 km/h (3 Bft) 98,86 %
30.11.2010 -3,2 C -3,2 C -3,2 C 84 % 1019,6 hPa 0,0 mm 2,1 km/h (1 Bft) O-NO 4,92 h 0,330 mm 0,4 UV-I 105 W/m -5,6 C -3,8 C 6,0 km/h (2 Bft) 99,32 %
01.12.2010 -6,7 C -6,7 C -6,6 C 68 % 1017,1 hPa 0,0 mm 7,3 km/h (2 Bft) O 4,17 h 0,584 mm 0,5 UV-I 111 W/m -11,7 C -9,8 C 18,7 km/h (3 Bft) 98,06 %
02.12.2010 -4,2 C -4,2 C -4,2 C 81 % 1008,6 hPa 2,0 mm 3,8 km/h (1 Bft) O 0,67 h 0,279 mm 0,0 UV-I 50 W/m -7,0 C -5,5 C 10,5 km/h (2 Bft) 98,28 %
03.12.2010 -3,9 C -3,9 C -3,8 C 93 % 1007,6 hPa 0,6 mm 0,8 km/h (0 Bft) W 0,00 h 0,000 mm 0,0 UV-I 23 W/m -4,9 C -3,9 C 4,1 km/h (1 Bft) 98,62 %
04.12.2010 -3,5 C -3,5 C -3,5 C 90 % 1012,2 hPa 0,6 mm 4,7 km/h (1 Bft) S 3,50 h 0,254 mm 0,0 UV-I 104 W/m -4,9 C -4,9 C 11,1 km/h (2 Bft) 98,62 %
05.12.2010 0,2 C 0,1 C 0,2 C 95 % 999,3 hPa 1,0 mm 5,9 km/h (2 Bft) S 0,00 h 0,000 mm 0,0 UV-I 17 W/m -0,6 C -1,5 C 13,2 km/h (3 Bft) 98,08 %
06.12.2010 0,8 C 0,8 C 0,8 C 95 % 1000,9 hPa 0,0 mm 1,6 km/h (1 Bft) W-SW 0,08 h 0,127 mm 0,0 UV-I 45 W/m 0,1 C 0,8 C 6,2 km/h (2 Bft) 95,59 %
07.12.2010 -2,6 C -2,6 C -2,6 C 96 % 1006,4 hPa 0,0 mm 1,2 km/h (1 Bft) S 0,00 h 0,102 mm 0,0 UV-I 42 W/m -3,1 C -2,7 C 4,2 km/h (1 Bft) 96,28 %
08.12.2010 -3,3 C -3,3 C -3,3 C 96 % 1007,7 hPa 0,0 mm 0,6 km/h (0 Bft) S 0,00 h 0,051 mm 0,0 UV-I 32 W/m -3,9 C -3,3 C 3,0 km/h (1 Bft) 94,30 %
09.12.2010 -1,2 C -1,2 C -1,1 C 93 % 1010,6 hPa 0,0 mm 4,8 km/h (1 Bft) S 1,58 h 0,152 mm 0,0 UV-I 50 W/m -2,2 C -2,4 C 13,0 km/h (3 Bft) 98,78 %
10.12.2010 -1,7 C -1,7 C -1,7 C 90 % 1020,5 hPa 1,0 mm 2,3 km/h (1 Bft) NW 1,58 h 0,127 mm 0,0 UV-I 55 W/m -3,0 C -2,0 C 6,9 km/h (2 Bft) 98,74 %
11.12.2010 5,3 C 5,2 C 5,3 C 91 % 1004,7 hPa 4,8 mm 12,0 km/h (2 Bft) W-NW 0,00 h 0,330 mm 0,0 UV-I 27 W/m 3,9 C 2,8 C 27,6 km/h (4 Bft) 98,72 %
12.12.2010 0,1 C 0,0 C 0,1 C 86 % 1013,0 hPa 1,4 mm 8,6 km/h (2 Bft) N-NW 0,42 h 0,305 mm 0,0 UV-I 34 W/m -2,0 C -2,6 C 19,1 km/h (3 Bft) 97,03 %
13.12.2010 -3,9 C -3,9 C -3,9 C 90 % 1021,3 hPa 0,4 mm 1,7 km/h (1 Bft) NW 0,17 h 0,025 mm 0,0 UV-I 25 W/m -5,3 C -4,3 C 5,1 km/h (1 Bft) 98,75 %
14.12.2010 -1,7 C -1,7 C -1,6 C 88 % 1025,5 hPa 0,0 mm 8,9 km/h (2 Bft) N-NW 3,67 h 0,279 mm 0,0 UV-I 68 W/m -3,4 C -4,8 C 18,1 km/h (3 Bft) 98,02 %
15.12.2010 -2,0 C -2,0 C -2,0 C 89 % 1023,6 hPa 0,0 mm 5,8 km/h (2 Bft) N-NW 0,00 h 0,127 mm 0,0 UV-I 32 W/m -3,5 C -4,0 C 13,0 km/h (3 Bft) 98,54 %
16.12.2010 -2,7 C -2,7 C -2,7 C 93 % 1002,5 hPa 2,8 mm 4,2 km/h (1 Bft) S 0,08 h 0,102 mm 0,0 UV-I 27 W/m -3,6 C -3,9 C 10,4 km/h (2 Bft) 98,62 %
17.12.2010 -5,0 C -5,0 C -5,0 C 95 % 994,0 hPa 0,0 mm 0,4 km/h (0 Bft) NW 0,08 h 0,051 mm 0,0 UV-I 32 W/m -5,7 C -5,0 C 2,2 km/h (1 Bft) 98,59 %
18.12.2010 -5,9 C -5,9 C -5,8 C 94 % 1000,6 hPa 0,0 mm 1,2 km/h (1 Bft) SO 0,00 h 0,076 mm 0,0 UV-I 32 W/m -6,7 C -5,9 C 3,4 km/h (1 Bft) 98,54 %
19.12.2010 -8,6 C -8,6 C -8,6 C 93 % 999,6 hPa 0,0 mm 0,5 km/h (0 Bft) O 0,00 h 0,000 mm 0,0 UV-I 27 W/m -9,6 C -8,6 C 2,5 km/h (1 Bft) 98,45 %
20.12.2010 -5,5 C -5,5 C -5,5 C 94 % 1000,1 hPa 0,0 mm 0,9 km/h (0 Bft) S-SW 0,00 h 0,076 mm 0,0 UV-I 33 W/m -6,4 C -5,5 C 4,0 km/h (1 Bft) 98,29 %
21.12.2010 -6,7 C -6,7 C -6,7 C 91 % 1007,5 hPa 0,0 mm 1,0 km/h (0 Bft) S 3,50 h 0,152 mm 0,0 UV-I 83 W/m -8,0 C -6,8 C 2,6 km/h (1 Bft) 98,31 %
22.12.2010 -5,7 C -5,7 C -5,7 C 93 % 1009,1 hPa 0,4 mm 1,9 km/h (1 Bft) O-NO 0,00 h 0,051 mm 0,0 UV-I 34 W/m -6,6 C -6,0 C 6,5 km/h (2 Bft) 98,21 %
23.12.2010 -0,7 C -0,7 C -0,7 C 96 % 1004,8 hPa 6,0 mm 5,5 km/h (1 Bft) O-NO 0,00 h 0,000 mm 0,0 UV-I 13 W/m -1,2 C -2,2 C 15,8 km/h (3 Bft) 98,74 %
24.12.2010 -3,1 C -3,1 C -3,0 C 92 % 1008,9 hPa 1,4 mm 11,2 km/h (2 Bft) N 0,00 h 0,076 mm 0,0 UV-I 19 W/m -4,2 C -7,3 C 25,1 km/h (4 Bft) 98,24 %
25.12.2010 -5,8 C -5,9 C -5,8 C 89 % 1018,6 hPa 0,0 mm 7,9 km/h (2 Bft) NW 1,75 h 0,178 mm 0,0 UV-I 57 W/m -7,3 C -8,9 C 17,0 km/h (3 Bft) 98,45 %
26.12.2010 -8,8 C -8,9 C -8,8 C 91 % 1021,6 hPa 0,4 mm 0,6 km/h (0 Bft) S-SO 4,67 h 0,152 mm 0,1 UV-I 88 W/m -10,0 C -8,8 C 2,5 km/h (1 Bft) 98,06 %
27.12.2010 -5,0 C -5,0 C -4,9 C 94 % 1019,2 hPa 0,0 mm 0,3 km/h (0 Bft) W-NW 0,00 h 0,051 mm 0,0 UV-I 31 W/m -5,8 C -5,0 C 1,6 km/h (1 Bft) 98,41 %
28.12.2010 -8,3 C -8,4 C -8,3 C 92 % 1024,8 hPa 0,0 mm 1,8 km/h (1 Bft) O-SO 0,67 h 0,076 mm 0,0 UV-I 47 W/m -9,3 C -8,5 C 4,2 km/h (1 Bft) 98,09 %
29.12.2010 -8,5 C -8,5 C -8,5 C 93 % 1027,4 hPa 0,0 mm 2,2 km/h (1 Bft) S 0,00 h 0,000 mm 0,0 UV-I 23 W/m -9,4 C -8,6 C 5,5 km/h (1 Bft) 98,41 %
30.12.2010 -7,6 C -7,6 C -7,6 C 93 % 1023,7 hPa 0,0 mm 0,6 km/h (0 Bft) W 0,00 h 0,000 mm 0,0 UV-I 28 W/m -8,5 C -7,6 C 3,2 km/h (1 Bft) 98,63 %
31.12.2010 1,5 C 1,5 C 1,5 C 95 % 1017,8 hPa 0,0 mm 4,8 km/h (1 Bft) W-NW 3,08 h 0,254 mm 0,4 UV-I 72 W/m 0,8 C 0,5 C 13,5 km/h (3 Bft) 98,68 %
Min-Datum 26.01.10 26.01.10 26.01.10 18.04.10 29.01.10 188 Tage 02.01.10 - - - - - 26.01.10 26.01.10 02.01.10 26.05.10
Min-Zeit 08:35 08:35 08:40 18:15 20:35 - 15:30 - - - - - 08:35 08:35 15:45 00:00
Minimum -17,9 C -17,9 C -17,9 C 30 % 976,6 hPa - 0,0 km/h (0 Bft) - - - - - -19,7 C -17,9 C 0,0 km/h (0 Bft) 0,00 %
Max-Datum 10.07.10 10.07.10 10.07.10 02.01.10 26.01.10 07.06.10 11.12.10 - 28.06.10 03.07.10 07.07.10 23.06.10 12.07.10 10.07.10 20.10.10 01.01.10
Max-Zeit 14:20 14:55 14:20 11:55 11:45 01:10 13:50 - 21:35 14:00 13:05 13:55 15:25 14:20 18:45 00:10
Maximum 34,1 C 34,0 C 34,1 C 100 % 1042,8 hPa 54,4 mm 25,0 km/h
W-NW (4 Bft)
- 14,08 h 0,610 mm 8,5 UV-I 1157 W/m 23,7 C 34,1 C 57,9 km/h
W (7 Bft)
100,00 %
Durchschnitt 7,9 C 7,8 C 7,9 C 85 % 1012,7 hPa #768,0 mm 3,1 km/h (1 Bft) NW #1684:08 h #533,193 mm 1,9 UV-I 178 W/m 5,2 C 7,4 C 8,5 km/h (2 Bft) 98,81 %

Durchschnitt Minimum Temp.4,0 C
Durchschnitt Maximum Temp.11,7 C

Jahr Standard-Abweichung:   - 1,95 K
Jahr Normal Wert:    9,82 C
Eistage (Tmax < 0C) :57
Frosttage (Tmin < 0C) :108
sehr kalt (Tmin <= -10,0C) :13
Kalte Tage (Tmax < 10C) :148
Warme Tage (Tmax >= 20,0C) :81
Sommertage (Tmax >= 25C) :29
Heie Tage (Tmax >= 30C) :10

Regen Tage
> 0,0 mm188
> 2,0 mm90
> 20,0 mm5
Jahr Standard-Abweichung:   + 64,9 mm
Jahr Normal Wert:    703,1 mm

VerteilungWindrichtung
Windstille38,2 %
N-NO3,1 %
NO3,3 %
O-NO3,8 %
O4,4 %
O-SO5,8 %
SO6,7 %
S-SO7,2 %
S8,3 %
S-SW3,3 %
SW4,2 %
W-SW4,6 %
W7,3 %
W-NW10,5 %
NW12,4 %
N-NW9,1 %
N6,0 %
Alle Angaben ohne Gewhr !